<?xml version="1.0" encoding="UTF-8" standalone="no" ?>
<gpx xmlns="http://www.topografix.com/GPX/1/1" xmlns:xsi="http://www.w3.org/2001/XMLSchema-instance" xsi:schemaLocation="http://www.topografix.com/GPX/1/1 http://www.topografix.com/GPX/1/1/gpx.xsd" version="1.1" creator="VisuGPX - https://www.visugpx.com">
  <metadata>
    <name>Brantes_Savoillan</name>
  </metadata>
  <trk>
    <name><![CDATA[Brantes_Savoillan]]></name>
    <extensions>
      <line xmlns="http://www.topografix.com/GPX/gpx_style/0/2">
        <color>0000FF</color>
        <width>4</width>
      </line>
    </extensions>
    <trkseg>
      <trkpt lat="44.19426" lon="5.3343">
        <ele>542.21</ele>
        <time>2021-11-04T14:39:38Z</time>
      </trkpt>
      <trkpt lat="44.19425" lon="5.33434">
        <ele>541.93</ele>
        <time>2021-11-04T14:37:54Z</time>
      </trkpt>
      <trkpt lat="44.19434" lon="5.33433">
        <ele>542.28</ele>
        <time>2021-11-04T14:37:43Z</time>
      </trkpt>
      <trkpt lat="44.19443" lon="5.33432">
        <ele>542.86</ele>
        <time>2021-11-04T14:37:34Z</time>
      </trkpt>
      <trkpt lat="44.19452" lon="5.33438">
        <ele>544.3</ele>
        <time>2021-11-04T14:37:23Z</time>
      </trkpt>
      <trkpt lat="44.19461" lon="5.33443">
        <ele>545.21</ele>
        <time>2021-11-04T14:37:13Z</time>
      </trkpt>
      <trkpt lat="44.19469" lon="5.33448">
        <ele>546.69</ele>
        <time>2021-11-04T14:37:02Z</time>
      </trkpt>
      <trkpt lat="44.19476" lon="5.33458">
        <ele>548.3</ele>
        <time>2021-11-04T14:36:49Z</time>
      </trkpt>
      <trkpt lat="44.19479" lon="5.33471">
        <ele>550.02</ele>
        <time>2021-11-04T14:36:37Z</time>
      </trkpt>
      <trkpt lat="44.19483" lon="5.33482">
        <ele>551.63</ele>
        <time>2021-11-04T14:36:25Z</time>
      </trkpt>
      <trkpt lat="44.19491" lon="5.3349">
        <ele>554.15</ele>
        <time>2021-11-04T14:36:08Z</time>
      </trkpt>
      <trkpt lat="44.19501" lon="5.33492">
        <ele>557.56</ele>
        <time>2021-11-04T14:35:54Z</time>
      </trkpt>
      <trkpt lat="44.1951" lon="5.33492">
        <ele>560.77</ele>
        <time>2021-11-04T14:35:10Z</time>
      </trkpt>
      <trkpt lat="44.19518" lon="5.335">
        <ele>561.21</ele>
        <time>2021-11-04T14:35:00Z</time>
      </trkpt>
      <trkpt lat="44.19522" lon="5.33511">
        <ele>562.14</ele>
        <time>2021-11-04T14:34:51Z</time>
      </trkpt>
      <trkpt lat="44.19522" lon="5.33525">
        <ele>562.26</ele>
        <time>2021-11-04T14:34:42Z</time>
      </trkpt>
      <trkpt lat="44.1952" lon="5.33538">
        <ele>563.13</ele>
        <time>2021-11-04T14:34:33Z</time>
      </trkpt>
      <trkpt lat="44.19516" lon="5.3355">
        <ele>564.41</ele>
        <time>2021-11-04T14:34:25Z</time>
      </trkpt>
      <trkpt lat="44.19514" lon="5.33562">
        <ele>565.35</ele>
        <time>2021-11-04T14:34:17Z</time>
      </trkpt>
      <trkpt lat="44.19515" lon="5.33575">
        <ele>568.47</ele>
        <time>2021-11-04T14:34:01Z</time>
      </trkpt>
      <trkpt lat="44.19515" lon="5.3359">
        <ele>570.67</ele>
        <time>2021-11-04T14:33:41Z</time>
      </trkpt>
      <trkpt lat="44.19516" lon="5.33603">
        <ele>572.63</ele>
        <time>2021-11-04T14:33:25Z</time>
      </trkpt>
      <trkpt lat="44.19523" lon="5.3361">
        <ele>575.05</ele>
        <time>2021-11-04T14:33:04Z</time>
      </trkpt>
      <trkpt lat="44.19528" lon="5.33618">
        <ele>577.06</ele>
        <time>2021-11-04T14:32:05Z</time>
      </trkpt>
      <trkpt lat="44.19536" lon="5.33626">
        <ele>578.27</ele>
        <time>2021-11-04T14:31:53Z</time>
      </trkpt>
      <trkpt lat="44.19546" lon="5.33631">
        <ele>579.57</ele>
        <time>2021-11-04T14:31:38Z</time>
      </trkpt>
      <trkpt lat="44.19554" lon="5.33636">
        <ele>581.45</ele>
        <time>2021-11-04T14:31:25Z</time>
      </trkpt>
      <trkpt lat="44.19563" lon="5.33645">
        <ele>582.99</ele>
        <time>2021-11-04T14:31:12Z</time>
      </trkpt>
      <trkpt lat="44.19572" lon="5.33651">
        <ele>585.03</ele>
        <time>2021-11-04T14:30:58Z</time>
      </trkpt>
      <trkpt lat="44.19581" lon="5.33653">
        <ele>586.57</ele>
        <time>2021-11-04T14:30:46Z</time>
      </trkpt>
      <trkpt lat="44.1959" lon="5.33657">
        <ele>587.73</ele>
        <time>2021-11-04T14:30:38Z</time>
      </trkpt>
      <trkpt lat="44.196" lon="5.33661">
        <ele>588.84</ele>
        <time>2021-11-04T14:30:21Z</time>
      </trkpt>
      <trkpt lat="44.19609" lon="5.3367">
        <ele>590.82</ele>
        <time>2021-11-04T14:30:06Z</time>
      </trkpt>
      <trkpt lat="44.19616" lon="5.3368">
        <ele>593.47</ele>
        <time>2021-11-04T14:29:52Z</time>
      </trkpt>
      <trkpt lat="44.19621" lon="5.33685">
        <ele>594.04</ele>
        <time>2021-11-04T14:28:06Z</time>
      </trkpt>
      <trkpt lat="44.19629" lon="5.33694">
        <ele>596.22</ele>
        <time>2021-11-04T14:27:54Z</time>
      </trkpt>
      <trkpt lat="44.19638" lon="5.33702">
        <ele>599.48</ele>
        <time>2021-11-04T14:27:38Z</time>
      </trkpt>
      <trkpt lat="44.19647" lon="5.3371">
        <ele>601.9</ele>
        <time>2021-11-04T14:27:25Z</time>
      </trkpt>
      <trkpt lat="44.19656" lon="5.33709">
        <ele>604.15</ele>
        <time>2021-11-04T14:27:14Z</time>
      </trkpt>
      <trkpt lat="44.19665" lon="5.33714">
        <ele>604.78</ele>
        <time>2021-11-04T14:27:05Z</time>
      </trkpt>
      <trkpt lat="44.19666" lon="5.33723">
        <ele>605.45</ele>
        <time>2021-11-04T14:26:16Z</time>
      </trkpt>
      <trkpt lat="44.19667" lon="5.33732">
        <ele>606.09</ele>
        <time>2021-11-04T14:24:21Z</time>
      </trkpt>
      <trkpt lat="44.19669" lon="5.33738">
        <ele>605.95</ele>
        <time>2021-11-04T14:22:37Z</time>
      </trkpt>
      <trkpt lat="44.1967" lon="5.33747">
        <ele>607.11</ele>
        <time>2021-11-04T14:21:57Z</time>
      </trkpt>
      <trkpt lat="44.19669" lon="5.33762">
        <ele>609.18</ele>
        <time>2021-11-04T14:21:45Z</time>
      </trkpt>
      <trkpt lat="44.19669" lon="5.3378">
        <ele>611.98</ele>
        <time>2021-11-04T14:21:31Z</time>
      </trkpt>
      <trkpt lat="44.1967" lon="5.33794">
        <ele>613.73</ele>
        <time>2021-11-04T14:21:16Z</time>
      </trkpt>
      <trkpt lat="44.19669" lon="5.33808">
        <ele>615.97</ele>
        <time>2021-11-04T14:21:03Z</time>
      </trkpt>
      <trkpt lat="44.19666" lon="5.33823">
        <ele>617.81</ele>
        <time>2021-11-04T14:20:51Z</time>
      </trkpt>
      <trkpt lat="44.19667" lon="5.33839">
        <ele>619.75</ele>
        <time>2021-11-04T14:20:39Z</time>
      </trkpt>
      <trkpt lat="44.19667" lon="5.33854">
        <ele>621.95</ele>
        <time>2021-11-04T14:20:26Z</time>
      </trkpt>
      <trkpt lat="44.19669" lon="5.33868">
        <ele>624.01</ele>
        <time>2021-11-04T14:20:14Z</time>
      </trkpt>
      <trkpt lat="44.19672" lon="5.33881">
        <ele>625.96</ele>
        <time>2021-11-04T14:20:03Z</time>
      </trkpt>
      <trkpt lat="44.19672" lon="5.33895">
        <ele>628.39</ele>
        <time>2021-11-04T14:19:51Z</time>
      </trkpt>
      <trkpt lat="44.19671" lon="5.33909">
        <ele>630.12</ele>
        <time>2021-11-04T14:19:38Z</time>
      </trkpt>
      <trkpt lat="44.1967" lon="5.33923">
        <ele>631.98</ele>
        <time>2021-11-04T14:19:27Z</time>
      </trkpt>
      <trkpt lat="44.19672" lon="5.33939">
        <ele>633.65</ele>
        <time>2021-11-04T14:19:13Z</time>
      </trkpt>
      <trkpt lat="44.19673" lon="5.33952">
        <ele>636.03</ele>
        <time>2021-11-04T14:19:00Z</time>
      </trkpt>
      <trkpt lat="44.19667" lon="5.33963">
        <ele>638.32</ele>
        <time>2021-11-04T14:18:47Z</time>
      </trkpt>
      <trkpt lat="44.19658" lon="5.33973">
        <ele>639.52</ele>
        <time>2021-11-04T14:18:34Z</time>
      </trkpt>
      <trkpt lat="44.19649" lon="5.33981">
        <ele>642</ele>
        <time>2021-11-04T14:18:20Z</time>
      </trkpt>
      <trkpt lat="44.19641" lon="5.3399">
        <ele>643.71</ele>
        <time>2021-11-04T14:18:07Z</time>
      </trkpt>
      <trkpt lat="44.19636" lon="5.34002">
        <ele>645.75</ele>
        <time>2021-11-04T14:17:56Z</time>
      </trkpt>
      <trkpt lat="44.1963" lon="5.34012">
        <ele>647.56</ele>
        <time>2021-11-04T14:17:46Z</time>
      </trkpt>
      <trkpt lat="44.19626" lon="5.34025">
        <ele>649.56</ele>
        <time>2021-11-04T14:17:33Z</time>
      </trkpt>
      <trkpt lat="44.19625" lon="5.34034">
        <ele>650.47</ele>
        <time>2021-11-04T14:08:57Z</time>
      </trkpt>
      <trkpt lat="44.19627" lon="5.34047">
        <ele>653.08</ele>
        <time>2021-11-04T14:08:44Z</time>
      </trkpt>
      <trkpt lat="44.1963" lon="5.3406">
        <ele>655.7</ele>
        <time>2021-11-04T14:08:30Z</time>
      </trkpt>
      <trkpt lat="44.19633" lon="5.34073">
        <ele>658.14</ele>
        <time>2021-11-04T14:08:17Z</time>
      </trkpt>
      <trkpt lat="44.19642" lon="5.34079">
        <ele>660.62</ele>
        <time>2021-11-04T14:08:03Z</time>
      </trkpt>
      <trkpt lat="44.1965" lon="5.34089">
        <ele>663.03</ele>
        <time>2021-11-04T14:07:50Z</time>
      </trkpt>
      <trkpt lat="44.19656" lon="5.341">
        <ele>664.85</ele>
        <time>2021-11-04T14:07:39Z</time>
      </trkpt>
      <trkpt lat="44.19665" lon="5.34111">
        <ele>666.57</ele>
        <time>2021-11-04T14:07:29Z</time>
      </trkpt>
      <trkpt lat="44.19669" lon="5.34123">
        <ele>668.95</ele>
        <time>2021-11-04T14:07:18Z</time>
      </trkpt>
      <trkpt lat="44.19672" lon="5.34138">
        <ele>671.21</ele>
        <time>2021-11-04T14:07:07Z</time>
      </trkpt>
      <trkpt lat="44.19673" lon="5.34154">
        <ele>673.89</ele>
        <time>2021-11-04T14:06:54Z</time>
      </trkpt>
      <trkpt lat="44.19674" lon="5.3417">
        <ele>676.71</ele>
        <time>2021-11-04T14:06:42Z</time>
      </trkpt>
      <trkpt lat="44.19674" lon="5.34182">
        <ele>678.15</ele>
        <time>2021-11-04T14:06:29Z</time>
      </trkpt>
      <trkpt lat="44.19674" lon="5.342">
        <ele>679.97</ele>
        <time>2021-11-04T14:06:19Z</time>
      </trkpt>
      <trkpt lat="44.19673" lon="5.34216">
        <ele>681.82</ele>
        <time>2021-11-04T14:06:08Z</time>
      </trkpt>
      <trkpt lat="44.19674" lon="5.34235">
        <ele>684.81</ele>
        <time>2021-11-04T14:05:56Z</time>
      </trkpt>
      <trkpt lat="44.19677" lon="5.34255">
        <ele>687.01</ele>
        <time>2021-11-04T14:05:45Z</time>
      </trkpt>
      <trkpt lat="44.19679" lon="5.34272">
        <ele>690.07</ele>
        <time>2021-11-04T14:05:32Z</time>
      </trkpt>
      <trkpt lat="44.19682" lon="5.34287">
        <ele>693.59</ele>
        <time>2021-11-04T14:05:23Z</time>
      </trkpt>
      <trkpt lat="44.19683" lon="5.34301">
        <ele>696.35</ele>
        <time>2021-11-04T14:05:14Z</time>
      </trkpt>
      <trkpt lat="44.1968" lon="5.34317">
        <ele>699.19</ele>
        <time>2021-11-04T14:05:02Z</time>
      </trkpt>
      <trkpt lat="44.19678" lon="5.34331">
        <ele>700.23</ele>
        <time>2021-11-04T14:04:53Z</time>
      </trkpt>
      <trkpt lat="44.19674" lon="5.34345">
        <ele>700.46</ele>
        <time>2021-11-04T14:04:45Z</time>
      </trkpt>
      <trkpt lat="44.19669" lon="5.34362">
        <ele>701.81</ele>
        <time>2021-11-04T14:04:34Z</time>
      </trkpt>
      <trkpt lat="44.19668" lon="5.34378">
        <ele>702.52</ele>
        <time>2021-11-04T14:04:21Z</time>
      </trkpt>
      <trkpt lat="44.19666" lon="5.34391">
        <ele>702.55</ele>
        <time>2021-11-04T14:04:08Z</time>
      </trkpt>
      <trkpt lat="44.19661" lon="5.34406">
        <ele>702.91</ele>
        <time>2021-11-04T14:03:56Z</time>
      </trkpt>
      <trkpt lat="44.19655" lon="5.3442">
        <ele>703.67</ele>
        <time>2021-11-04T14:03:44Z</time>
      </trkpt>
      <trkpt lat="44.19651" lon="5.34433">
        <ele>704.77</ele>
        <time>2021-11-04T14:03:35Z</time>
      </trkpt>
      <trkpt lat="44.19646" lon="5.34445">
        <ele>705.96</ele>
        <time>2021-11-04T14:03:25Z</time>
      </trkpt>
      <trkpt lat="44.19643" lon="5.34459">
        <ele>706.89</ele>
        <time>2021-11-04T14:03:15Z</time>
      </trkpt>
      <trkpt lat="44.19639" lon="5.34474">
        <ele>707.97</ele>
        <time>2021-11-04T14:03:08Z</time>
      </trkpt>
      <trkpt lat="44.19635" lon="5.34489">
        <ele>709.1</ele>
        <time>2021-11-04T14:03:01Z</time>
      </trkpt>
      <trkpt lat="44.19633" lon="5.34502">
        <ele>710.78</ele>
        <time>2021-11-04T14:02:55Z</time>
      </trkpt>
      <trkpt lat="44.19632" lon="5.34516">
        <ele>712.34</ele>
        <time>2021-11-04T14:02:49Z</time>
      </trkpt>
      <trkpt lat="44.19632" lon="5.34529">
        <ele>714.05</ele>
        <time>2021-11-04T14:02:43Z</time>
      </trkpt>
      <trkpt lat="44.1963" lon="5.34543">
        <ele>716.06</ele>
        <time>2021-11-04T14:02:34Z</time>
      </trkpt>
      <trkpt lat="44.19628" lon="5.34559">
        <ele>718.55</ele>
        <time>2021-11-04T14:02:24Z</time>
      </trkpt>
      <trkpt lat="44.19628" lon="5.34574">
        <ele>721.19</ele>
        <time>2021-11-04T14:02:14Z</time>
      </trkpt>
      <trkpt lat="44.19627" lon="5.34589">
        <ele>724.97</ele>
        <time>2021-11-04T14:02:04Z</time>
      </trkpt>
      <trkpt lat="44.19636" lon="5.34596">
        <ele>726.96</ele>
        <time>2021-11-04T14:01:57Z</time>
      </trkpt>
      <trkpt lat="44.19642" lon="5.34608">
        <ele>728.03</ele>
        <time>2021-11-04T14:01:49Z</time>
      </trkpt>
      <trkpt lat="44.19643" lon="5.34623">
        <ele>729.78</ele>
        <time>2021-11-04T14:01:39Z</time>
      </trkpt>
      <trkpt lat="44.19645" lon="5.34639">
        <ele>730.4</ele>
        <time>2021-11-04T14:01:28Z</time>
      </trkpt>
      <trkpt lat="44.19649" lon="5.34656">
        <ele>732.36</ele>
        <time>2021-11-04T14:01:16Z</time>
      </trkpt>
      <trkpt lat="44.19656" lon="5.34668">
        <ele>734.47</ele>
        <time>2021-11-04T14:01:05Z</time>
      </trkpt>
      <trkpt lat="44.1966" lon="5.34682">
        <ele>736.67</ele>
        <time>2021-11-04T13:59:56Z</time>
      </trkpt>
      <trkpt lat="44.19662" lon="5.34695">
        <ele>738.61</ele>
        <time>2021-11-04T13:59:46Z</time>
      </trkpt>
      <trkpt lat="44.19663" lon="5.34711">
        <ele>739.86</ele>
        <time>2021-11-04T13:59:33Z</time>
      </trkpt>
      <trkpt lat="44.19666" lon="5.34726">
        <ele>741.07</ele>
        <time>2021-11-04T13:59:21Z</time>
      </trkpt>
      <trkpt lat="44.19671" lon="5.34737">
        <ele>743.24</ele>
        <time>2021-11-04T13:59:09Z</time>
      </trkpt>
      <trkpt lat="44.19677" lon="5.34748">
        <ele>745.68</ele>
        <time>2021-11-04T13:58:57Z</time>
      </trkpt>
      <trkpt lat="44.19678" lon="5.34762">
        <ele>746.15</ele>
        <time>2021-11-04T13:58:48Z</time>
      </trkpt>
      <trkpt lat="44.19682" lon="5.34777">
        <ele>748.36</ele>
        <time>2021-11-04T13:58:33Z</time>
      </trkpt>
      <trkpt lat="44.19686" lon="5.34793">
        <ele>751.57</ele>
        <time>2021-11-04T13:58:18Z</time>
      </trkpt>
      <trkpt lat="44.1969" lon="5.34809">
        <ele>754.74</ele>
        <time>2021-11-04T13:58:04Z</time>
      </trkpt>
      <trkpt lat="44.19695" lon="5.34817">
        <ele>758.15</ele>
        <time>2021-11-04T13:57:48Z</time>
      </trkpt>
      <trkpt lat="44.19695" lon="5.34835">
        <ele>761.57</ele>
        <time>2021-11-04T13:57:32Z</time>
      </trkpt>
      <trkpt lat="44.19694" lon="5.34851">
        <ele>763.44</ele>
        <time>2021-11-04T13:57:19Z</time>
      </trkpt>
      <trkpt lat="44.19692" lon="5.34866">
        <ele>765.36</ele>
        <time>2021-11-04T13:57:08Z</time>
      </trkpt>
      <trkpt lat="44.19689" lon="5.34883">
        <ele>766.56</ele>
        <time>2021-11-04T13:56:55Z</time>
      </trkpt>
      <trkpt lat="44.19687" lon="5.34902">
        <ele>769.5</ele>
        <time>2021-11-04T13:56:43Z</time>
      </trkpt>
      <trkpt lat="44.19685" lon="5.34917">
        <ele>772.16</ele>
        <time>2021-11-04T13:56:30Z</time>
      </trkpt>
      <trkpt lat="44.19682" lon="5.34932">
        <ele>775.5</ele>
        <time>2021-11-04T13:56:15Z</time>
      </trkpt>
      <trkpt lat="44.19679" lon="5.34945">
        <ele>778.38</ele>
        <time>2021-11-04T13:56:05Z</time>
      </trkpt>
      <trkpt lat="44.19675" lon="5.34959">
        <ele>779.97</ele>
        <time>2021-11-04T13:55:56Z</time>
      </trkpt>
      <trkpt lat="44.1967" lon="5.34974">
        <ele>782.65</ele>
        <time>2021-11-04T13:55:43Z</time>
      </trkpt>
      <trkpt lat="44.19666" lon="5.34988">
        <ele>785.5</ele>
        <time>2021-11-04T13:55:30Z</time>
      </trkpt>
      <trkpt lat="44.19661" lon="5.35001">
        <ele>788.67</ele>
        <time>2021-11-04T13:55:15Z</time>
      </trkpt>
      <trkpt lat="44.19658" lon="5.35012">
        <ele>791.25</ele>
        <time>2021-11-04T13:55:03Z</time>
      </trkpt>
      <trkpt lat="44.19652" lon="5.35024">
        <ele>790.88</ele>
        <time>2021-11-04T13:54:54Z</time>
      </trkpt>
      <trkpt lat="44.19645" lon="5.35038">
        <ele>791.8</ele>
        <time>2021-11-04T13:54:43Z</time>
      </trkpt>
      <trkpt lat="44.19638" lon="5.35054">
        <ele>793.57</ele>
        <time>2021-11-04T13:54:32Z</time>
      </trkpt>
      <trkpt lat="44.19634" lon="5.3507">
        <ele>795.73</ele>
        <time>2021-11-04T13:54:19Z</time>
      </trkpt>
      <trkpt lat="44.1963" lon="5.35085">
        <ele>797.5</ele>
        <time>2021-11-04T13:54:07Z</time>
      </trkpt>
      <trkpt lat="44.19628" lon="5.351">
        <ele>799.19</ele>
        <time>2021-11-04T13:53:56Z</time>
      </trkpt>
      <trkpt lat="44.19625" lon="5.35116">
        <ele>799.88</ele>
        <time>2021-11-04T13:53:43Z</time>
      </trkpt>
      <trkpt lat="44.19621" lon="5.35127">
        <ele>801.53</ele>
        <time>2021-11-04T13:53:29Z</time>
      </trkpt>
      <trkpt lat="44.19616" lon="5.3514">
        <ele>803.22</ele>
        <time>2021-11-04T13:53:18Z</time>
      </trkpt>
      <trkpt lat="44.19614" lon="5.35153">
        <ele>806.6</ele>
        <time>2021-11-04T13:53:02Z</time>
      </trkpt>
      <trkpt lat="44.19614" lon="5.35165">
        <ele>807.31</ele>
        <time>2021-11-04T13:52:49Z</time>
      </trkpt>
      <trkpt lat="44.19611" lon="5.3518">
        <ele>807.33</ele>
        <time>2021-11-04T13:52:37Z</time>
      </trkpt>
      <trkpt lat="44.19609" lon="5.35193">
        <ele>807.47</ele>
        <time>2021-11-04T13:52:26Z</time>
      </trkpt>
      <trkpt lat="44.19607" lon="5.35205">
        <ele>807.81</ele>
        <time>2021-11-04T13:52:16Z</time>
      </trkpt>
      <trkpt lat="44.19603" lon="5.35218">
        <ele>807.15</ele>
        <time>2021-11-04T13:52:03Z</time>
      </trkpt>
      <trkpt lat="44.19599" lon="5.3523">
        <ele>806.27</ele>
        <time>2021-11-04T13:51:51Z</time>
      </trkpt>
      <trkpt lat="44.19596" lon="5.35242">
        <ele>806.16</ele>
        <time>2021-11-04T13:51:38Z</time>
      </trkpt>
      <trkpt lat="44.19594" lon="5.35251">
        <ele>805.63</ele>
        <time>2021-11-04T13:48:01Z</time>
      </trkpt>
      <trkpt lat="44.1959" lon="5.35267">
        <ele>806.01</ele>
        <time>2021-11-04T13:47:47Z</time>
      </trkpt>
      <trkpt lat="44.19586" lon="5.35282">
        <ele>805.16</ele>
        <time>2021-11-04T13:47:40Z</time>
      </trkpt>
      <trkpt lat="44.19585" lon="5.35297">
        <ele>804.59</ele>
        <time>2021-11-04T13:47:35Z</time>
      </trkpt>
      <trkpt lat="44.19584" lon="5.35311">
        <ele>805.58</ele>
        <time>2021-11-04T13:47:31Z</time>
      </trkpt>
      <trkpt lat="44.19585" lon="5.35325">
        <ele>806.53</ele>
        <time>2021-11-04T13:47:26Z</time>
      </trkpt>
      <trkpt lat="44.19583" lon="5.35339">
        <ele>806.4</ele>
        <time>2021-11-04T13:47:21Z</time>
      </trkpt>
      <trkpt lat="44.19582" lon="5.35354">
        <ele>807.93</ele>
        <time>2021-11-04T13:47:15Z</time>
      </trkpt>
      <trkpt lat="44.19581" lon="5.35368">
        <ele>808.82</ele>
        <time>2021-11-04T13:47:10Z</time>
      </trkpt>
      <trkpt lat="44.19582" lon="5.35382">
        <ele>810.77</ele>
        <time>2021-11-04T13:47:06Z</time>
      </trkpt>
      <trkpt lat="44.19583" lon="5.35396">
        <ele>813.53</ele>
        <time>2021-11-04T13:46:58Z</time>
      </trkpt>
      <trkpt lat="44.19583" lon="5.35409">
        <ele>815.83</ele>
        <time>2021-11-04T13:46:47Z</time>
      </trkpt>
      <trkpt lat="44.19582" lon="5.35422">
        <ele>817.56</ele>
        <time>2021-11-04T13:46:34Z</time>
      </trkpt>
      <trkpt lat="44.1958" lon="5.35434">
        <ele>818.76</ele>
        <time>2021-11-04T13:46:22Z</time>
      </trkpt>
      <trkpt lat="44.19579" lon="5.35447">
        <ele>820.39</ele>
        <time>2021-11-04T13:46:04Z</time>
      </trkpt>
      <trkpt lat="44.19577" lon="5.35461">
        <ele>822.09</ele>
        <time>2021-11-04T13:45:50Z</time>
      </trkpt>
      <trkpt lat="44.19577" lon="5.35474">
        <ele>823.96</ele>
        <time>2021-11-04T13:45:31Z</time>
      </trkpt>
      <trkpt lat="44.19579" lon="5.35486">
        <ele>825.36</ele>
        <time>2021-11-04T13:45:20Z</time>
      </trkpt>
      <trkpt lat="44.19578" lon="5.35497">
        <ele>825.26</ele>
        <time>2021-11-04T13:44:01Z</time>
      </trkpt>
      <trkpt lat="44.19576" lon="5.35509">
        <ele>825.66</ele>
        <time>2021-11-04T13:43:48Z</time>
      </trkpt>
      <trkpt lat="44.19575" lon="5.35522">
        <ele>825.85</ele>
        <time>2021-11-04T13:43:39Z</time>
      </trkpt>
      <trkpt lat="44.19572" lon="5.35534">
        <ele>825.88</ele>
        <time>2021-11-04T13:43:31Z</time>
      </trkpt>
      <trkpt lat="44.19567" lon="5.35547">
        <ele>825.05</ele>
        <time>2021-11-04T13:43:22Z</time>
      </trkpt>
      <trkpt lat="44.19564" lon="5.35559">
        <ele>824.95</ele>
        <time>2021-11-04T13:43:13Z</time>
      </trkpt>
      <trkpt lat="44.19562" lon="5.35572">
        <ele>825.29</ele>
        <time>2021-11-04T13:43:04Z</time>
      </trkpt>
      <trkpt lat="44.19559" lon="5.35584">
        <ele>825.26</ele>
        <time>2021-11-04T13:42:55Z</time>
      </trkpt>
      <trkpt lat="44.19555" lon="5.35596">
        <ele>825.19</ele>
        <time>2021-11-04T13:42:47Z</time>
      </trkpt>
      <trkpt lat="44.19552" lon="5.35608">
        <ele>824.66</ele>
        <time>2021-11-04T13:42:38Z</time>
      </trkpt>
      <trkpt lat="44.19551" lon="5.35621">
        <ele>824.88</ele>
        <time>2021-11-04T13:42:29Z</time>
      </trkpt>
      <trkpt lat="44.19546" lon="5.35632">
        <ele>824.68</ele>
        <time>2021-11-04T13:42:20Z</time>
      </trkpt>
      <trkpt lat="44.19542" lon="5.35645">
        <ele>823.76</ele>
        <time>2021-11-04T13:42:10Z</time>
      </trkpt>
      <trkpt lat="44.19539" lon="5.35658">
        <ele>824.67</ele>
        <time>2021-11-04T13:41:58Z</time>
      </trkpt>
      <trkpt lat="44.19538" lon="5.35671">
        <ele>823.84</ele>
        <time>2021-11-04T13:41:45Z</time>
      </trkpt>
      <trkpt lat="44.19533" lon="5.35682">
        <ele>823.95</ele>
        <time>2021-11-04T13:41:17Z</time>
      </trkpt>
      <trkpt lat="44.19529" lon="5.35693">
        <ele>823.97</ele>
        <time>2021-11-04T13:41:00Z</time>
      </trkpt>
      <trkpt lat="44.19527" lon="5.35705">
        <ele>823.17</ele>
        <time>2021-11-04T13:40:49Z</time>
      </trkpt>
      <trkpt lat="44.19524" lon="5.35717">
        <ele>822.85</ele>
        <time>2021-11-04T13:40:38Z</time>
      </trkpt>
      <trkpt lat="44.19522" lon="5.35728">
        <ele>822.63</ele>
        <time>2021-11-04T13:40:12Z</time>
      </trkpt>
      <trkpt lat="44.19522" lon="5.3574">
        <ele>821.51</ele>
        <time>2021-11-04T13:40:00Z</time>
      </trkpt>
      <trkpt lat="44.19525" lon="5.35748">
        <ele>822.2</ele>
        <time>2021-11-04T13:36:14Z</time>
      </trkpt>
      <trkpt lat="44.19524" lon="5.3576">
        <ele>821.41</ele>
        <time>2021-11-04T13:36:00Z</time>
      </trkpt>
      <trkpt lat="44.19525" lon="5.35773">
        <ele>820.88</ele>
        <time>2021-11-04T13:35:47Z</time>
      </trkpt>
      <trkpt lat="44.19523" lon="5.35786">
        <ele>820.79</ele>
        <time>2021-11-04T13:35:37Z</time>
      </trkpt>
      <trkpt lat="44.19521" lon="5.35798">
        <ele>819.22</ele>
        <time>2021-11-04T13:35:27Z</time>
      </trkpt>
      <trkpt lat="44.1952" lon="5.35811">
        <ele>818.07</ele>
        <time>2021-11-04T13:35:17Z</time>
      </trkpt>
      <trkpt lat="44.19517" lon="5.35823">
        <ele>817.82</ele>
        <time>2021-11-04T13:35:08Z</time>
      </trkpt>
      <trkpt lat="44.19515" lon="5.35836">
        <ele>816.99</ele>
        <time>2021-11-04T13:34:58Z</time>
      </trkpt>
      <trkpt lat="44.19511" lon="5.35849">
        <ele>816.11</ele>
        <time>2021-11-04T13:34:48Z</time>
      </trkpt>
      <trkpt lat="44.19507" lon="5.35862">
        <ele>816.15</ele>
        <time>2021-11-04T13:34:38Z</time>
      </trkpt>
      <trkpt lat="44.19503" lon="5.35874">
        <ele>815.35</ele>
        <time>2021-11-04T13:34:28Z</time>
      </trkpt>
      <trkpt lat="44.19502" lon="5.35888">
        <ele>814.85</ele>
        <time>2021-11-04T13:34:18Z</time>
      </trkpt>
      <trkpt lat="44.19501" lon="5.35901">
        <ele>814.07</ele>
        <time>2021-11-04T13:34:07Z</time>
      </trkpt>
      <trkpt lat="44.19496" lon="5.35913">
        <ele>813.06</ele>
        <time>2021-11-04T13:33:57Z</time>
      </trkpt>
      <trkpt lat="44.19492" lon="5.35926">
        <ele>812.9</ele>
        <time>2021-11-04T13:33:46Z</time>
      </trkpt>
      <trkpt lat="44.1949" lon="5.3594">
        <ele>812.6</ele>
        <time>2021-11-04T13:33:35Z</time>
      </trkpt>
      <trkpt lat="44.19488" lon="5.35954">
        <ele>811.28</ele>
        <time>2021-11-04T13:33:23Z</time>
      </trkpt>
      <trkpt lat="44.19485" lon="5.35968">
        <ele>810.5</ele>
        <time>2021-11-04T13:33:11Z</time>
      </trkpt>
      <trkpt lat="44.19483" lon="5.35981">
        <ele>810.11</ele>
        <time>2021-11-04T13:33:01Z</time>
      </trkpt>
      <trkpt lat="44.19483" lon="5.35993">
        <ele>808.75</ele>
        <time>2021-11-04T13:32:52Z</time>
      </trkpt>
      <trkpt lat="44.1948" lon="5.36007">
        <ele>808.15</ele>
        <time>2021-11-04T13:32:43Z</time>
      </trkpt>
      <trkpt lat="44.1948" lon="5.36019">
        <ele>807.76</ele>
        <time>2021-11-04T13:32:34Z</time>
      </trkpt>
      <trkpt lat="44.19479" lon="5.36033">
        <ele>808.17</ele>
        <time>2021-11-04T13:32:25Z</time>
      </trkpt>
      <trkpt lat="44.19479" lon="5.36046">
        <ele>807.73</ele>
        <time>2021-11-04T13:32:16Z</time>
      </trkpt>
      <trkpt lat="44.19476" lon="5.3606">
        <ele>807.12</ele>
        <time>2021-11-04T13:32:06Z</time>
      </trkpt>
      <trkpt lat="44.19473" lon="5.36074">
        <ele>807.27</ele>
        <time>2021-11-04T13:31:56Z</time>
      </trkpt>
      <trkpt lat="44.19471" lon="5.36089">
        <ele>805.6</ele>
        <time>2021-11-04T13:31:46Z</time>
      </trkpt>
      <trkpt lat="44.19465" lon="5.36102">
        <ele>804.37</ele>
        <time>2021-11-04T13:31:36Z</time>
      </trkpt>
      <trkpt lat="44.19463" lon="5.36115">
        <ele>803.78</ele>
        <time>2021-11-04T13:31:26Z</time>
      </trkpt>
      <trkpt lat="44.19461" lon="5.36128">
        <ele>803.56</ele>
        <time>2021-11-04T13:31:15Z</time>
      </trkpt>
      <trkpt lat="44.19461" lon="5.36141">
        <ele>803.11</ele>
        <time>2021-11-04T13:31:06Z</time>
      </trkpt>
      <trkpt lat="44.19461" lon="5.36155">
        <ele>802.62</ele>
        <time>2021-11-04T13:30:55Z</time>
      </trkpt>
      <trkpt lat="44.1946" lon="5.36167">
        <ele>802.23</ele>
        <time>2021-11-04T13:30:43Z</time>
      </trkpt>
      <trkpt lat="44.19457" lon="5.3618">
        <ele>801.48</ele>
        <time>2021-11-04T13:30:33Z</time>
      </trkpt>
      <trkpt lat="44.19453" lon="5.36192">
        <ele>799.85</ele>
        <time>2021-11-04T13:30:23Z</time>
      </trkpt>
      <trkpt lat="44.19449" lon="5.36207">
        <ele>799.28</ele>
        <time>2021-11-04T13:30:13Z</time>
      </trkpt>
      <trkpt lat="44.19442" lon="5.36218">
        <ele>797.21</ele>
        <time>2021-11-04T13:30:00Z</time>
      </trkpt>
      <trkpt lat="44.19436" lon="5.36229">
        <ele>795.74</ele>
        <time>2021-11-04T13:29:48Z</time>
      </trkpt>
      <trkpt lat="44.19434" lon="5.36242">
        <ele>795.27</ele>
        <time>2021-11-04T13:29:28Z</time>
      </trkpt>
      <trkpt lat="44.19439" lon="5.36252">
        <ele>796.35</ele>
        <time>2021-11-04T13:29:12Z</time>
      </trkpt>
      <trkpt lat="44.19446" lon="5.36259">
        <ele>796.76</ele>
        <time>2021-11-04T13:28:47Z</time>
      </trkpt>
      <trkpt lat="44.19444" lon="5.36265">
        <ele>796.34</ele>
        <time>2021-11-04T13:28:23Z</time>
      </trkpt>
      <trkpt lat="44.19441" lon="5.36277">
        <ele>795.55</ele>
        <time>2021-11-04T13:28:15Z</time>
      </trkpt>
      <trkpt lat="44.19439" lon="5.3629">
        <ele>795.17</ele>
        <time>2021-11-04T13:28:07Z</time>
      </trkpt>
      <trkpt lat="44.19437" lon="5.36303">
        <ele>793.89</ele>
        <time>2021-11-04T13:27:56Z</time>
      </trkpt>
      <trkpt lat="44.19434" lon="5.36315">
        <ele>793.11</ele>
        <time>2021-11-04T13:27:46Z</time>
      </trkpt>
      <trkpt lat="44.1943" lon="5.36328">
        <ele>792.57</ele>
        <time>2021-11-04T13:27:37Z</time>
      </trkpt>
      <trkpt lat="44.19425" lon="5.36342">
        <ele>791.28</ele>
        <time>2021-11-04T13:27:27Z</time>
      </trkpt>
      <trkpt lat="44.1942" lon="5.36355">
        <ele>790.46</ele>
        <time>2021-11-04T13:27:17Z</time>
      </trkpt>
      <trkpt lat="44.19417" lon="5.36368">
        <ele>788.35</ele>
        <time>2021-11-04T13:27:08Z</time>
      </trkpt>
      <trkpt lat="44.19413" lon="5.36381">
        <ele>788.63</ele>
        <time>2021-11-04T13:26:59Z</time>
      </trkpt>
      <trkpt lat="44.1941" lon="5.36394">
        <ele>786.81</ele>
        <time>2021-11-04T13:26:50Z</time>
      </trkpt>
      <trkpt lat="44.19408" lon="5.36408">
        <ele>785.36</ele>
        <time>2021-11-04T13:26:40Z</time>
      </trkpt>
      <trkpt lat="44.19408" lon="5.3642">
        <ele>783.79</ele>
        <time>2021-11-04T13:26:30Z</time>
      </trkpt>
      <trkpt lat="44.19406" lon="5.36432">
        <ele>782.62</ele>
        <time>2021-11-04T13:26:21Z</time>
      </trkpt>
      <trkpt lat="44.19401" lon="5.36443">
        <ele>781.06</ele>
        <time>2021-11-04T13:26:12Z</time>
      </trkpt>
      <trkpt lat="44.19395" lon="5.36455">
        <ele>779.92</ele>
        <time>2021-11-04T13:26:01Z</time>
      </trkpt>
      <trkpt lat="44.19393" lon="5.36468">
        <ele>778.66</ele>
        <time>2021-11-04T13:25:50Z</time>
      </trkpt>
      <trkpt lat="44.1939" lon="5.36482">
        <ele>777.27</ele>
        <time>2021-11-04T13:25:30Z</time>
      </trkpt>
      <trkpt lat="44.19387" lon="5.36494">
        <ele>776.5</ele>
        <time>2021-11-04T13:25:18Z</time>
      </trkpt>
      <trkpt lat="44.19384" lon="5.36508">
        <ele>774.71</ele>
        <time>2021-11-04T13:25:04Z</time>
      </trkpt>
      <trkpt lat="44.19383" lon="5.36521">
        <ele>773.13</ele>
        <time>2021-11-04T13:24:51Z</time>
      </trkpt>
      <trkpt lat="44.19379" lon="5.36533">
        <ele>771.81</ele>
        <time>2021-11-04T13:24:38Z</time>
      </trkpt>
      <trkpt lat="44.19374" lon="5.36541">
        <ele>770.25</ele>
        <time>2021-11-04T13:24:00Z</time>
      </trkpt>
      <trkpt lat="44.19372" lon="5.36547">
        <ele>769.96</ele>
        <time>2021-11-04T13:23:19Z</time>
      </trkpt>
      <trkpt lat="44.19372" lon="5.36553">
        <ele>770.02</ele>
        <time>2021-11-04T13:20:07Z</time>
      </trkpt>
      <trkpt lat="44.19369" lon="5.36565">
        <ele>768.94</ele>
        <time>2021-11-04T13:19:54Z</time>
      </trkpt>
      <trkpt lat="44.19364" lon="5.36575">
        <ele>768.16</ele>
        <time>2021-11-04T13:19:43Z</time>
      </trkpt>
      <trkpt lat="44.1936" lon="5.36588">
        <ele>766.83</ele>
        <time>2021-11-04T13:19:31Z</time>
      </trkpt>
      <trkpt lat="44.19354" lon="5.36598">
        <ele>765.24</ele>
        <time>2021-11-04T13:19:19Z</time>
      </trkpt>
      <trkpt lat="44.19347" lon="5.36607">
        <ele>764.03</ele>
        <time>2021-11-04T13:19:11Z</time>
      </trkpt>
      <trkpt lat="44.1934" lon="5.36618">
        <ele>761.87</ele>
        <time>2021-11-04T13:19:01Z</time>
      </trkpt>
      <trkpt lat="44.19335" lon="5.3663">
        <ele>759.77</ele>
        <time>2021-11-04T13:18:52Z</time>
      </trkpt>
      <trkpt lat="44.1933" lon="5.36643">
        <ele>759.37</ele>
        <time>2021-11-04T13:18:43Z</time>
      </trkpt>
      <trkpt lat="44.19325" lon="5.36656">
        <ele>758.02</ele>
        <time>2021-11-04T13:18:32Z</time>
      </trkpt>
      <trkpt lat="44.19322" lon="5.36671">
        <ele>755.56</ele>
        <time>2021-11-04T13:18:20Z</time>
      </trkpt>
      <trkpt lat="44.19318" lon="5.36685">
        <ele>753.44</ele>
        <time>2021-11-04T13:18:07Z</time>
      </trkpt>
      <trkpt lat="44.19318" lon="5.36698">
        <ele>751.15</ele>
        <time>2021-11-04T13:17:55Z</time>
      </trkpt>
      <trkpt lat="44.19316" lon="5.36711">
        <ele>749.3</ele>
        <time>2021-11-04T13:17:42Z</time>
      </trkpt>
      <trkpt lat="44.19311" lon="5.36724">
        <ele>747.05</ele>
        <time>2021-11-04T13:17:31Z</time>
      </trkpt>
      <trkpt lat="44.19308" lon="5.36739">
        <ele>743.98</ele>
        <time>2021-11-04T13:17:18Z</time>
      </trkpt>
      <trkpt lat="44.19301" lon="5.36749">
        <ele>741.23</ele>
        <time>2021-11-04T13:17:04Z</time>
      </trkpt>
      <trkpt lat="44.19297" lon="5.3676">
        <ele>738.35</ele>
        <time>2021-11-04T13:16:50Z</time>
      </trkpt>
      <trkpt lat="44.19293" lon="5.36771">
        <ele>735.94</ele>
        <time>2021-11-04T13:16:38Z</time>
      </trkpt>
      <trkpt lat="44.19289" lon="5.36782">
        <ele>732.97</ele>
        <time>2021-11-04T13:16:25Z</time>
      </trkpt>
      <trkpt lat="44.19284" lon="5.36787">
        <ele>730.03</ele>
        <time>2021-11-04T13:16:13Z</time>
      </trkpt>
      <trkpt lat="44.19278" lon="5.36778">
        <ele>727.57</ele>
        <time>2021-11-04T13:16:00Z</time>
      </trkpt>
      <trkpt lat="44.19271" lon="5.36768">
        <ele>724.35</ele>
        <time>2021-11-04T13:15:49Z</time>
      </trkpt>
      <trkpt lat="44.19265" lon="5.36773">
        <ele>720.46</ele>
        <time>2021-11-04T13:15:39Z</time>
      </trkpt>
      <trkpt lat="44.1926" lon="5.36769">
        <ele>717.54</ele>
        <time>2021-11-04T13:15:29Z</time>
      </trkpt>
      <trkpt lat="44.19256" lon="5.36758">
        <ele>713.64</ele>
        <time>2021-11-04T13:15:02Z</time>
      </trkpt>
      <trkpt lat="44.19257" lon="5.36746">
        <ele>712.05</ele>
        <time>2021-11-04T13:14:39Z</time>
      </trkpt>
      <trkpt lat="44.19254" lon="5.36735">
        <ele>708.67</ele>
        <time>2021-11-04T13:14:16Z</time>
      </trkpt>
      <trkpt lat="44.19249" lon="5.36746">
        <ele>705.02</ele>
        <time>2021-11-04T13:13:58Z</time>
      </trkpt>
      <trkpt lat="44.19242" lon="5.36758">
        <ele>702.09</ele>
        <time>2021-11-04T13:13:33Z</time>
      </trkpt>
      <trkpt lat="44.19235" lon="5.36769">
        <ele>699.29</ele>
        <time>2021-11-04T13:13:19Z</time>
      </trkpt>
      <trkpt lat="44.19227" lon="5.36778">
        <ele>695.46</ele>
        <time>2021-11-04T13:12:59Z</time>
      </trkpt>
      <trkpt lat="44.19218" lon="5.36783">
        <ele>690.72</ele>
        <time>2021-11-04T13:12:38Z</time>
      </trkpt>
      <trkpt lat="44.19211" lon="5.36793">
        <ele>687.6</ele>
        <time>2021-11-04T13:12:19Z</time>
      </trkpt>
      <trkpt lat="44.19209" lon="5.36796">
        <ele>685.78</ele>
        <time>2021-11-04T13:11:23Z</time>
      </trkpt>
      <trkpt lat="44.19202" lon="5.36804">
        <ele>685.62</ele>
        <time>2021-11-04T13:09:32Z</time>
      </trkpt>
      <trkpt lat="44.19198" lon="5.3682">
        <ele>683.93</ele>
        <time>2021-11-04T13:09:17Z</time>
      </trkpt>
      <trkpt lat="44.19197" lon="5.36834">
        <ele>683.88</ele>
        <time>2021-11-04T13:09:01Z</time>
      </trkpt>
      <trkpt lat="44.19194" lon="5.36846">
        <ele>682.57</ele>
        <time>2021-11-04T13:08:48Z</time>
      </trkpt>
      <trkpt lat="44.19187" lon="5.36856">
        <ele>679.83</ele>
        <time>2021-11-04T13:08:28Z</time>
      </trkpt>
      <trkpt lat="44.19187" lon="5.36871">
        <ele>679.04</ele>
        <time>2021-11-04T13:08:12Z</time>
      </trkpt>
      <trkpt lat="44.19183" lon="5.36883">
        <ele>676.36</ele>
        <time>2021-11-04T13:08:01Z</time>
      </trkpt>
      <trkpt lat="44.19176" lon="5.36895">
        <ele>675.09</ele>
        <time>2021-11-04T13:07:52Z</time>
      </trkpt>
      <trkpt lat="44.19173" lon="5.36909">
        <ele>674.59</ele>
        <time>2021-11-04T13:07:43Z</time>
      </trkpt>
      <trkpt lat="44.19168" lon="5.36922">
        <ele>673.86</ele>
        <time>2021-11-04T13:07:33Z</time>
      </trkpt>
      <trkpt lat="44.19166" lon="5.36935">
        <ele>673.84</ele>
        <time>2021-11-04T13:07:25Z</time>
      </trkpt>
      <trkpt lat="44.19162" lon="5.36949">
        <ele>673.08</ele>
        <time>2021-11-04T13:07:16Z</time>
      </trkpt>
      <trkpt lat="44.19159" lon="5.36962">
        <ele>672.3</ele>
        <time>2021-11-04T13:07:06Z</time>
      </trkpt>
      <trkpt lat="44.19155" lon="5.36975">
        <ele>671.68</ele>
        <time>2021-11-04T13:06:55Z</time>
      </trkpt>
      <trkpt lat="44.19152" lon="5.36988">
        <ele>670.75</ele>
        <time>2021-11-04T13:06:44Z</time>
      </trkpt>
      <trkpt lat="44.19147" lon="5.36999">
        <ele>670.68</ele>
        <time>2021-11-04T13:06:33Z</time>
      </trkpt>
      <trkpt lat="44.19142" lon="5.37014">
        <ele>670.63</ele>
        <time>2021-11-04T13:04:26Z</time>
      </trkpt>
      <trkpt lat="44.19142" lon="5.3701">
        <ele>670.82</ele>
        <time>2021-11-04T13:01:47Z</time>
      </trkpt>
      <trkpt lat="44.19138" lon="5.36998">
        <ele>667.91</ele>
        <time>2021-11-04T13:01:32Z</time>
      </trkpt>
      <trkpt lat="44.19136" lon="5.36984">
        <ele>664.36</ele>
        <time>2021-11-04T13:01:19Z</time>
      </trkpt>
      <trkpt lat="44.19138" lon="5.36964">
        <ele>661.92</ele>
        <time>2021-11-04T13:01:06Z</time>
      </trkpt>
      <trkpt lat="44.19139" lon="5.36949">
        <ele>660.4</ele>
        <time>2021-11-04T13:00:54Z</time>
      </trkpt>
      <trkpt lat="44.19139" lon="5.36929">
        <ele>657.97</ele>
        <time>2021-11-04T13:00:40Z</time>
      </trkpt>
      <trkpt lat="44.19138" lon="5.36912">
        <ele>655.03</ele>
        <time>2021-11-04T13:00:26Z</time>
      </trkpt>
      <trkpt lat="44.19138" lon="5.36896">
        <ele>652.9</ele>
        <time>2021-11-04T13:00:14Z</time>
      </trkpt>
      <trkpt lat="44.19138" lon="5.36881">
        <ele>651.19</ele>
        <time>2021-11-04T13:00:02Z</time>
      </trkpt>
      <trkpt lat="44.19137" lon="5.36864">
        <ele>648.18</ele>
        <time>2021-11-04T12:59:49Z</time>
      </trkpt>
      <trkpt lat="44.19133" lon="5.36851">
        <ele>644.3</ele>
        <time>2021-11-04T12:59:35Z</time>
      </trkpt>
      <trkpt lat="44.19129" lon="5.36837">
        <ele>641.58</ele>
        <time>2021-11-04T12:59:20Z</time>
      </trkpt>
      <trkpt lat="44.19122" lon="5.36826">
        <ele>637.92</ele>
        <time>2021-11-04T12:59:05Z</time>
      </trkpt>
      <trkpt lat="44.19114" lon="5.36837">
        <ele>636.27</ele>
        <time>2021-11-04T12:58:50Z</time>
      </trkpt>
      <trkpt lat="44.19109" lon="5.36853">
        <ele>636.03</ele>
        <time>2021-11-04T12:58:41Z</time>
      </trkpt>
      <trkpt lat="44.19107" lon="5.36868">
        <ele>635.77</ele>
        <time>2021-11-04T12:58:33Z</time>
      </trkpt>
      <trkpt lat="44.19104" lon="5.36881">
        <ele>634.72</ele>
        <time>2021-11-04T12:58:26Z</time>
      </trkpt>
      <trkpt lat="44.19101" lon="5.36895">
        <ele>634.26</ele>
        <time>2021-11-04T12:58:19Z</time>
      </trkpt>
      <trkpt lat="44.19097" lon="5.36907">
        <ele>633.29</ele>
        <time>2021-11-04T12:58:13Z</time>
      </trkpt>
      <trkpt lat="44.19094" lon="5.36922">
        <ele>632.94</ele>
        <time>2021-11-04T12:58:05Z</time>
      </trkpt>
      <trkpt lat="44.19091" lon="5.36935">
        <ele>632.87</ele>
        <time>2021-11-04T12:57:57Z</time>
      </trkpt>
      <trkpt lat="44.19088" lon="5.36947">
        <ele>632.59</ele>
        <time>2021-11-04T12:57:49Z</time>
      </trkpt>
      <trkpt lat="44.19083" lon="5.36958">
        <ele>634.17</ele>
        <time>2021-11-04T12:57:40Z</time>
      </trkpt>
      <trkpt lat="44.19078" lon="5.36973">
        <ele>634.24</ele>
        <time>2021-11-04T12:57:28Z</time>
      </trkpt>
      <trkpt lat="44.19074" lon="5.36986">
        <ele>633.66</ele>
        <time>2021-11-04T12:57:17Z</time>
      </trkpt>
      <trkpt lat="44.19069" lon="5.37">
        <ele>634.03</ele>
        <time>2021-11-04T12:57:07Z</time>
      </trkpt>
      <trkpt lat="44.19061" lon="5.37015">
        <ele>633.75</ele>
        <time>2021-11-04T12:56:56Z</time>
      </trkpt>
      <trkpt lat="44.19055" lon="5.37026">
        <ele>633.33</ele>
        <time>2021-11-04T12:56:45Z</time>
      </trkpt>
      <trkpt lat="44.19047" lon="5.37037">
        <ele>633.45</ele>
        <time>2021-11-04T12:56:34Z</time>
      </trkpt>
      <trkpt lat="44.19041" lon="5.37048">
        <ele>632.59</ele>
        <time>2021-11-04T12:56:22Z</time>
      </trkpt>
      <trkpt lat="44.19034" lon="5.37058">
        <ele>632.13</ele>
        <time>2021-11-04T12:56:12Z</time>
      </trkpt>
      <trkpt lat="44.19028" lon="5.37067">
        <ele>632.02</ele>
        <time>2021-11-04T12:56:04Z</time>
      </trkpt>
      <trkpt lat="44.19018" lon="5.37075">
        <ele>631.07</ele>
        <time>2021-11-04T12:55:55Z</time>
      </trkpt>
      <trkpt lat="44.19008" lon="5.37078">
        <ele>631.52</ele>
        <time>2021-11-04T12:55:39Z</time>
      </trkpt>
      <trkpt lat="44.18996" lon="5.37082">
        <ele>631.03</ele>
        <time>2021-11-04T12:55:26Z</time>
      </trkpt>
      <trkpt lat="44.18985" lon="5.37087">
        <ele>629.88</ele>
        <time>2021-11-04T12:55:13Z</time>
      </trkpt>
      <trkpt lat="44.18975" lon="5.37095">
        <ele>628.87</ele>
        <time>2021-11-04T12:55:01Z</time>
      </trkpt>
      <trkpt lat="44.18971" lon="5.37098">
        <ele>628.11</ele>
        <time>2021-11-04T12:54:39Z</time>
      </trkpt>
      <trkpt lat="44.18968" lon="5.37099">
        <ele>628.11</ele>
        <time>2021-11-04T12:54:01Z</time>
      </trkpt>
      <trkpt lat="44.18959" lon="5.37106">
        <ele>627.82</ele>
        <time>2021-11-04T12:53:30Z</time>
      </trkpt>
      <trkpt lat="44.18947" lon="5.37106">
        <ele>625.29</ele>
        <time>2021-11-04T12:53:15Z</time>
      </trkpt>
      <trkpt lat="44.18936" lon="5.37105">
        <ele>622.57</ele>
        <time>2021-11-04T12:53:01Z</time>
      </trkpt>
      <trkpt lat="44.18924" lon="5.37108">
        <ele>620.05</ele>
        <time>2021-11-04T12:52:49Z</time>
      </trkpt>
      <trkpt lat="44.18911" lon="5.37111">
        <ele>618.59</ele>
        <time>2021-11-04T12:52:36Z</time>
      </trkpt>
      <trkpt lat="44.189" lon="5.37115">
        <ele>617.61</ele>
        <time>2021-11-04T12:52:24Z</time>
      </trkpt>
      <trkpt lat="44.1889" lon="5.37121">
        <ele>616.58</ele>
        <time>2021-11-04T12:52:11Z</time>
      </trkpt>
      <trkpt lat="44.18883" lon="5.37128">
        <ele>615.46</ele>
        <time>2021-11-04T12:47:46Z</time>
      </trkpt>
      <trkpt lat="44.18875" lon="5.37129">
        <ele>615.77</ele>
        <time>2021-11-04T12:47:16Z</time>
      </trkpt>
      <trkpt lat="44.18861" lon="5.37133">
        <ele>613.6</ele>
        <time>2021-11-04T12:47:01Z</time>
      </trkpt>
      <trkpt lat="44.18848" lon="5.37133">
        <ele>609.86</ele>
        <time>2021-11-04T12:46:48Z</time>
      </trkpt>
      <trkpt lat="44.18835" lon="5.3713">
        <ele>606.15</ele>
        <time>2021-11-04T12:46:33Z</time>
      </trkpt>
      <trkpt lat="44.18829" lon="5.3712">
        <ele>603.86</ele>
        <time>2021-11-04T12:46:22Z</time>
      </trkpt>
      <trkpt lat="44.18834" lon="5.37103">
        <ele>602.18</ele>
        <time>2021-11-04T12:46:12Z</time>
      </trkpt>
      <trkpt lat="44.18837" lon="5.37086">
        <ele>599.92</ele>
        <time>2021-11-04T12:46:02Z</time>
      </trkpt>
      <trkpt lat="44.18836" lon="5.37071">
        <ele>597.01</ele>
        <time>2021-11-04T12:45:51Z</time>
      </trkpt>
      <trkpt lat="44.18839" lon="5.37053">
        <ele>595.55</ele>
        <time>2021-11-04T12:45:40Z</time>
      </trkpt>
      <trkpt lat="44.18843" lon="5.37034">
        <ele>594.22</ele>
        <time>2021-11-04T12:45:30Z</time>
      </trkpt>
      <trkpt lat="44.18841" lon="5.37016">
        <ele>591.81</ele>
        <time>2021-11-04T12:45:19Z</time>
      </trkpt>
      <trkpt lat="44.18836" lon="5.37">
        <ele>587.54</ele>
        <time>2021-11-04T12:45:06Z</time>
      </trkpt>
      <trkpt lat="44.18825" lon="5.37">
        <ele>584.2</ele>
        <time>2021-11-04T12:44:47Z</time>
      </trkpt>
      <trkpt lat="44.18821" lon="5.37003">
        <ele>580.85</ele>
        <time>2021-11-04T12:44:29Z</time>
      </trkpt>
      <trkpt lat="44.18819" lon="5.36995">
        <ele>579.02</ele>
        <time>2021-11-04T12:41:45Z</time>
      </trkpt>
      <trkpt lat="44.18826" lon="5.36985">
        <ele>577.42</ele>
        <time>2021-11-04T12:40:55Z</time>
      </trkpt>
      <trkpt lat="44.1883" lon="5.36969">
        <ele>575.88</ele>
        <time>2021-11-04T12:40:40Z</time>
      </trkpt>
      <trkpt lat="44.18828" lon="5.36956">
        <ele>571.7</ele>
        <time>2021-11-04T12:40:17Z</time>
      </trkpt>
      <trkpt lat="44.18832" lon="5.36948">
        <ele>567.77</ele>
        <time>2021-11-04T12:39:59Z</time>
      </trkpt>
      <trkpt lat="44.18838" lon="5.36942">
        <ele>563.96</ele>
        <time>2021-11-04T12:39:04Z</time>
      </trkpt>
      <trkpt lat="44.18827" lon="5.36934">
        <ele>561.63</ele>
        <time>2021-11-04T12:38:50Z</time>
      </trkpt>
      <trkpt lat="44.18816" lon="5.36934">
        <ele>560.45</ele>
        <time>2021-11-04T12:38:39Z</time>
      </trkpt>
      <trkpt lat="44.18807" lon="5.36938">
        <ele>560.38</ele>
        <time>2021-11-04T12:38:31Z</time>
      </trkpt>
      <trkpt lat="44.18798" lon="5.36946">
        <ele>559.97</ele>
        <time>2021-11-04T12:38:21Z</time>
      </trkpt>
      <trkpt lat="44.18791" lon="5.36955">
        <ele>559.63</ele>
        <time>2021-11-04T12:38:12Z</time>
      </trkpt>
      <trkpt lat="44.18784" lon="5.36963">
        <ele>559.12</ele>
        <time>2021-11-04T12:38:04Z</time>
      </trkpt>
      <trkpt lat="44.18777" lon="5.36973">
        <ele>559</ele>
        <time>2021-11-04T12:37:55Z</time>
      </trkpt>
      <trkpt lat="44.18769" lon="5.36983">
        <ele>558.56</ele>
        <time>2021-11-04T12:37:46Z</time>
      </trkpt>
      <trkpt lat="44.18762" lon="5.36993">
        <ele>557.92</ele>
        <time>2021-11-04T12:37:37Z</time>
      </trkpt>
      <trkpt lat="44.18755" lon="5.37004">
        <ele>557.42</ele>
        <time>2021-11-04T12:37:27Z</time>
      </trkpt>
      <trkpt lat="44.18748" lon="5.37015">
        <ele>557.17</ele>
        <time>2021-11-04T12:37:17Z</time>
      </trkpt>
      <trkpt lat="44.18741" lon="5.37024">
        <ele>557.2</ele>
        <time>2021-11-04T12:37:06Z</time>
      </trkpt>
      <trkpt lat="44.18734" lon="5.37026">
        <ele>556.8</ele>
        <time>2021-11-04T12:35:37Z</time>
      </trkpt>
      <trkpt lat="44.18725" lon="5.3703">
        <ele>557.08</ele>
        <time>2021-11-04T12:35:25Z</time>
      </trkpt>
      <trkpt lat="44.18717" lon="5.3704">
        <ele>557.54</ele>
        <time>2021-11-04T12:35:16Z</time>
      </trkpt>
      <trkpt lat="44.18711" lon="5.37047">
        <ele>559.02</ele>
        <time>2021-11-04T12:35:07Z</time>
      </trkpt>
      <trkpt lat="44.18704" lon="5.37045">
        <ele>560.9</ele>
        <time>2021-11-04T12:34:57Z</time>
      </trkpt>
      <trkpt lat="44.18702" lon="5.37034">
        <ele>561.94</ele>
        <time>2021-11-04T12:34:46Z</time>
      </trkpt>
      <trkpt lat="44.18702" lon="5.37019">
        <ele>562.98</ele>
        <time>2021-11-04T12:34:33Z</time>
      </trkpt>
      <trkpt lat="44.18701" lon="5.37003">
        <ele>563.95</ele>
        <time>2021-11-04T12:34:21Z</time>
      </trkpt>
      <trkpt lat="44.187" lon="5.36983">
        <ele>565.56</ele>
        <time>2021-11-04T12:34:08Z</time>
      </trkpt>
      <trkpt lat="44.18698" lon="5.36961">
        <ele>566.82</ele>
        <time>2021-11-04T12:33:55Z</time>
      </trkpt>
      <trkpt lat="44.18696" lon="5.36944">
        <ele>568.09</ele>
        <time>2021-11-04T12:33:41Z</time>
      </trkpt>
      <trkpt lat="44.18696" lon="5.36927">
        <ele>569.56</ele>
        <time>2021-11-04T12:33:26Z</time>
      </trkpt>
      <trkpt lat="44.18696" lon="5.36907">
        <ele>570.6</ele>
        <time>2021-11-04T12:33:13Z</time>
      </trkpt>
      <trkpt lat="44.18695" lon="5.36889">
        <ele>572.05</ele>
        <time>2021-11-04T12:33:00Z</time>
      </trkpt>
      <trkpt lat="44.18693" lon="5.36874">
        <ele>573.6</ele>
        <time>2021-11-04T12:32:45Z</time>
      </trkpt>
      <trkpt lat="44.18689" lon="5.36858">
        <ele>574.58</ele>
        <time>2021-11-04T12:32:32Z</time>
      </trkpt>
      <trkpt lat="44.18685" lon="5.36847">
        <ele>575.44</ele>
        <time>2021-11-04T12:32:22Z</time>
      </trkpt>
      <trkpt lat="44.18673" lon="5.36845">
        <ele>576.57</ele>
        <time>2021-11-04T12:32:09Z</time>
      </trkpt>
      <trkpt lat="44.18671" lon="5.36857">
        <ele>578.83</ele>
        <time>2021-11-04T12:31:57Z</time>
      </trkpt>
      <trkpt lat="44.18668" lon="5.36873">
        <ele>580.6</ele>
        <time>2021-11-04T12:31:44Z</time>
      </trkpt>
      <trkpt lat="44.18665" lon="5.36886">
        <ele>582.74</ele>
        <time>2021-11-04T12:31:32Z</time>
      </trkpt>
      <trkpt lat="44.18661" lon="5.36898">
        <ele>584.3</ele>
        <time>2021-11-04T12:31:22Z</time>
      </trkpt>
      <trkpt lat="44.18656" lon="5.3691">
        <ele>585.68</ele>
        <time>2021-11-04T12:31:12Z</time>
      </trkpt>
      <trkpt lat="44.18649" lon="5.3692">
        <ele>585.87</ele>
        <time>2021-11-04T12:31:03Z</time>
      </trkpt>
      <trkpt lat="44.18644" lon="5.36931">
        <ele>587.1</ele>
        <time>2021-11-04T12:30:53Z</time>
      </trkpt>
      <trkpt lat="44.18638" lon="5.36941">
        <ele>587.45</ele>
        <time>2021-11-04T12:30:44Z</time>
      </trkpt>
      <trkpt lat="44.18632" lon="5.36946">
        <ele>587.33</ele>
        <time>2021-11-04T12:30:26Z</time>
      </trkpt>
      <trkpt lat="44.18625" lon="5.36955">
        <ele>587.24</ele>
        <time>2021-11-04T12:30:16Z</time>
      </trkpt>
      <trkpt lat="44.18619" lon="5.36969">
        <ele>587.46</ele>
        <time>2021-11-04T12:30:05Z</time>
      </trkpt>
      <trkpt lat="44.18613" lon="5.36981">
        <ele>587.65</ele>
        <time>2021-11-04T12:29:54Z</time>
      </trkpt>
      <trkpt lat="44.18607" lon="5.36992">
        <ele>587.06</ele>
        <time>2021-11-04T12:29:44Z</time>
      </trkpt>
      <trkpt lat="44.186" lon="5.37003">
        <ele>586.57</ele>
        <time>2021-11-04T12:29:32Z</time>
      </trkpt>
      <trkpt lat="44.18591" lon="5.37004">
        <ele>586.45</ele>
        <time>2021-11-04T12:29:20Z</time>
      </trkpt>
      <trkpt lat="44.18581" lon="5.36996">
        <ele>587.12</ele>
        <time>2021-11-04T12:29:07Z</time>
      </trkpt>
      <trkpt lat="44.18571" lon="5.36991">
        <ele>588.6</ele>
        <time>2021-11-04T12:28:52Z</time>
      </trkpt>
      <trkpt lat="44.18561" lon="5.36985">
        <ele>590.89</ele>
        <time>2021-11-04T12:28:33Z</time>
      </trkpt>
      <trkpt lat="44.18551" lon="5.36982">
        <ele>592.09</ele>
        <time>2021-11-04T12:28:19Z</time>
      </trkpt>
      <trkpt lat="44.18543" lon="5.36991">
        <ele>592.44</ele>
        <time>2021-11-04T12:28:07Z</time>
      </trkpt>
      <trkpt lat="44.18537" lon="5.37004">
        <ele>592.26</ele>
        <time>2021-11-04T12:27:57Z</time>
      </trkpt>
      <trkpt lat="44.18532" lon="5.37018">
        <ele>593.27</ele>
        <time>2021-11-04T12:27:47Z</time>
      </trkpt>
      <trkpt lat="44.18531" lon="5.37037">
        <ele>591.88</ele>
        <time>2021-11-04T12:27:35Z</time>
      </trkpt>
      <trkpt lat="44.18525" lon="5.37052">
        <ele>590.91</ele>
        <time>2021-11-04T12:27:23Z</time>
      </trkpt>
      <trkpt lat="44.18517" lon="5.37069">
        <ele>589.29</ele>
        <time>2021-11-04T12:27:07Z</time>
      </trkpt>
      <trkpt lat="44.18511" lon="5.37083">
        <ele>587.88</ele>
        <time>2021-11-04T12:26:54Z</time>
      </trkpt>
      <trkpt lat="44.18505" lon="5.37099">
        <ele>586.04</ele>
        <time>2021-11-04T12:26:41Z</time>
      </trkpt>
      <trkpt lat="44.18502" lon="5.37113">
        <ele>584.08</ele>
        <time>2021-11-04T12:26:24Z</time>
      </trkpt>
      <trkpt lat="44.18499" lon="5.37129">
        <ele>582.95</ele>
        <time>2021-11-04T12:26:12Z</time>
      </trkpt>
      <trkpt lat="44.18493" lon="5.37147">
        <ele>580.7</ele>
        <time>2021-11-04T12:25:57Z</time>
      </trkpt>
      <trkpt lat="44.18491" lon="5.37164">
        <ele>578.73</ele>
        <time>2021-11-04T12:25:42Z</time>
      </trkpt>
      <trkpt lat="44.18487" lon="5.37184">
        <ele>576.57</ele>
        <time>2021-11-04T12:25:26Z</time>
      </trkpt>
      <trkpt lat="44.18481" lon="5.37201">
        <ele>574.21</ele>
        <time>2021-11-04T12:25:08Z</time>
      </trkpt>
      <trkpt lat="44.18479" lon="5.37214">
        <ele>573.19</ele>
        <time>2021-11-04T12:24:45Z</time>
      </trkpt>
      <trkpt lat="44.18479" lon="5.37224">
        <ele>572.27</ele>
        <time>2021-11-04T12:23:19Z</time>
      </trkpt>
      <trkpt lat="44.18476" lon="5.37237">
        <ele>570.49</ele>
        <time>2021-11-04T12:22:59Z</time>
      </trkpt>
      <trkpt lat="44.18473" lon="5.37251">
        <ele>568.66</ele>
        <time>2021-11-04T12:22:43Z</time>
      </trkpt>
      <trkpt lat="44.18469" lon="5.37273">
        <ele>567.14</ele>
        <time>2021-11-04T12:21:59Z</time>
      </trkpt>
      <trkpt lat="44.18467" lon="5.37285">
        <ele>565.68</ele>
        <time>2021-11-04T12:21:40Z</time>
      </trkpt>
      <trkpt lat="44.18463" lon="5.37301">
        <ele>563.72</ele>
        <time>2021-11-04T12:21:22Z</time>
      </trkpt>
      <trkpt lat="44.18458" lon="5.37312">
        <ele>562.16</ele>
        <time>2021-11-04T12:20:58Z</time>
      </trkpt>
      <trkpt lat="44.18453" lon="5.37326">
        <ele>559.87</ele>
        <time>2021-11-04T12:20:43Z</time>
      </trkpt>
      <trkpt lat="44.18447" lon="5.3734">
        <ele>558.3</ele>
        <time>2021-11-04T12:20:28Z</time>
      </trkpt>
      <trkpt lat="44.18445" lon="5.37356">
        <ele>556.21</ele>
        <time>2021-11-04T12:20:10Z</time>
      </trkpt>
      <trkpt lat="44.18445" lon="5.3737">
        <ele>552.04</ele>
        <time>2021-11-04T12:19:48Z</time>
      </trkpt>
      <trkpt lat="44.18444" lon="5.37382">
        <ele>548.92</ele>
        <time>2021-11-04T12:19:24Z</time>
      </trkpt>
      <trkpt lat="44.18442" lon="5.37395">
        <ele>546.02</ele>
        <time>2021-11-04T12:19:03Z</time>
      </trkpt>
      <trkpt lat="44.18443" lon="5.37406">
        <ele>542.93</ele>
        <time>2021-11-04T12:17:19Z</time>
      </trkpt>
      <trkpt lat="44.18442" lon="5.37415">
        <ele>542</ele>
        <time>2021-11-04T12:15:51Z</time>
      </trkpt>
      <trkpt lat="44.18437" lon="5.37428">
        <ele>538.24</ele>
        <time>2021-11-04T12:15:32Z</time>
      </trkpt>
      <trkpt lat="44.18434" lon="5.3744">
        <ele>534.92</ele>
        <time>2021-11-04T12:15:13Z</time>
      </trkpt>
      <trkpt lat="44.18431" lon="5.37455">
        <ele>531.46</ele>
        <time>2021-11-04T12:14:53Z</time>
      </trkpt>
      <trkpt lat="44.18422" lon="5.37468">
        <ele>528.8</ele>
        <time>2021-11-04T12:14:37Z</time>
      </trkpt>
      <trkpt lat="44.18415" lon="5.37481">
        <ele>526.93</ele>
        <time>2021-11-04T12:14:23Z</time>
      </trkpt>
      <trkpt lat="44.18409" lon="5.37495">
        <ele>524.65</ele>
        <time>2021-11-04T12:14:10Z</time>
      </trkpt>
      <trkpt lat="44.184" lon="5.37505">
        <ele>523.61</ele>
        <time>2021-11-04T12:13:56Z</time>
      </trkpt>
      <trkpt lat="44.18393" lon="5.37516">
        <ele>522.04</ele>
        <time>2021-11-04T12:13:44Z</time>
      </trkpt>
      <trkpt lat="44.18387" lon="5.37528">
        <ele>520.32</ele>
        <time>2021-11-04T12:13:30Z</time>
      </trkpt>
      <trkpt lat="44.18377" lon="5.37539">
        <ele>518.29</ele>
        <time>2021-11-04T12:13:16Z</time>
      </trkpt>
      <trkpt lat="44.18371" lon="5.3755">
        <ele>516.05</ele>
        <time>2021-11-04T12:13:01Z</time>
      </trkpt>
      <trkpt lat="44.18368" lon="5.37563">
        <ele>514.09</ele>
        <time>2021-11-04T12:12:44Z</time>
      </trkpt>
      <trkpt lat="44.18362" lon="5.37576">
        <ele>512.68</ele>
        <time>2021-11-04T12:12:25Z</time>
      </trkpt>
      <trkpt lat="44.18361" lon="5.3759">
        <ele>512.11</ele>
        <time>2021-11-04T12:12:09Z</time>
      </trkpt>
      <trkpt lat="44.18363" lon="5.37605">
        <ele>512.06</ele>
        <time>2021-11-04T12:11:48Z</time>
      </trkpt>
      <trkpt lat="44.18358" lon="5.37618">
        <ele>511</ele>
        <time>2021-11-04T12:11:37Z</time>
      </trkpt>
      <trkpt lat="44.18344" lon="5.37627">
        <ele>509.78</ele>
        <time>2021-11-04T12:11:27Z</time>
      </trkpt>
      <trkpt lat="44.18333" lon="5.37634">
        <ele>509.46</ele>
        <time>2021-11-04T12:11:16Z</time>
      </trkpt>
      <trkpt lat="44.18323" lon="5.37637">
        <ele>509.13</ele>
        <time>2021-11-04T12:11:06Z</time>
      </trkpt>
      <trkpt lat="44.18311" lon="5.37637">
        <ele>508.68</ele>
        <time>2021-11-04T12:10:54Z</time>
      </trkpt>
      <trkpt lat="44.18299" lon="5.37636">
        <ele>508.53</ele>
        <time>2021-11-04T12:10:43Z</time>
      </trkpt>
      <trkpt lat="44.1829" lon="5.37634">
        <ele>508.84</ele>
        <time>2021-11-04T12:10:31Z</time>
      </trkpt>
      <trkpt lat="44.18278" lon="5.3763">
        <ele>508.97</ele>
        <time>2021-11-04T12:10:21Z</time>
      </trkpt>
      <trkpt lat="44.18268" lon="5.37622">
        <ele>508.54</ele>
        <time>2021-11-04T12:10:12Z</time>
      </trkpt>
      <trkpt lat="44.18254" lon="5.37617">
        <ele>507.9</ele>
        <time>2021-11-04T12:10:02Z</time>
      </trkpt>
      <trkpt lat="44.18241" lon="5.37616">
        <ele>506.9</ele>
        <time>2021-11-04T12:09:50Z</time>
      </trkpt>
      <trkpt lat="44.18231" lon="5.37614">
        <ele>506.43</ele>
        <time>2021-11-04T12:09:41Z</time>
      </trkpt>
      <trkpt lat="44.18219" lon="5.37609">
        <ele>505.6</ele>
        <time>2021-11-04T12:09:31Z</time>
      </trkpt>
      <trkpt lat="44.18207" lon="5.37604">
        <ele>504.75</ele>
        <time>2021-11-04T12:09:20Z</time>
      </trkpt>
      <trkpt lat="44.18199" lon="5.37598">
        <ele>504.26</ele>
        <time>2021-11-04T12:09:09Z</time>
      </trkpt>
      <trkpt lat="44.18191" lon="5.37589">
        <ele>503.94</ele>
        <time>2021-11-04T12:08:59Z</time>
      </trkpt>
      <trkpt lat="44.18183" lon="5.37581">
        <ele>503.3</ele>
        <time>2021-11-04T12:08:48Z</time>
      </trkpt>
      <trkpt lat="44.18178" lon="5.37568">
        <ele>502.31</ele>
        <time>2021-11-04T12:08:36Z</time>
      </trkpt>
      <trkpt lat="44.18174" lon="5.37554">
        <ele>501.96</ele>
        <time>2021-11-04T12:08:19Z</time>
      </trkpt>
      <trkpt lat="44.18169" lon="5.37541">
        <ele>501.52</ele>
        <time>2021-11-04T12:08:10Z</time>
      </trkpt>
      <trkpt lat="44.18161" lon="5.37532">
        <ele>501.59</ele>
        <time>2021-11-04T12:08:01Z</time>
      </trkpt>
      <trkpt lat="44.18152" lon="5.37526">
        <ele>500.82</ele>
        <time>2021-11-04T12:07:52Z</time>
      </trkpt>
      <trkpt lat="44.18144" lon="5.37523">
        <ele>501.62</ele>
        <time>2021-11-04T12:07:43Z</time>
      </trkpt>
      <trkpt lat="44.18134" lon="5.3752">
        <ele>502.37</ele>
        <time>2021-11-04T12:07:33Z</time>
      </trkpt>
      <trkpt lat="44.18124" lon="5.37517">
        <ele>503.11</ele>
        <time>2021-11-04T12:07:25Z</time>
      </trkpt>
      <trkpt lat="44.18114" lon="5.37514">
        <ele>503.78</ele>
        <time>2021-11-04T12:07:16Z</time>
      </trkpt>
      <trkpt lat="44.18105" lon="5.37511">
        <ele>503.75</ele>
        <time>2021-11-04T12:07:07Z</time>
      </trkpt>
      <trkpt lat="44.18096" lon="5.37507">
        <ele>503.64</ele>
        <time>2021-11-04T12:06:58Z</time>
      </trkpt>
      <trkpt lat="44.18087" lon="5.37503">
        <ele>503.32</ele>
        <time>2021-11-04T12:06:49Z</time>
      </trkpt>
      <trkpt lat="44.18078" lon="5.375">
        <ele>503.15</ele>
        <time>2021-11-04T12:06:41Z</time>
      </trkpt>
      <trkpt lat="44.18068" lon="5.37497">
        <ele>502.98</ele>
        <time>2021-11-04T12:06:33Z</time>
      </trkpt>
      <trkpt lat="44.1806" lon="5.37494">
        <ele>503.21</ele>
        <time>2021-11-04T12:06:25Z</time>
      </trkpt>
      <trkpt lat="44.1805" lon="5.37491">
        <ele>503.13</ele>
        <time>2021-11-04T12:06:16Z</time>
      </trkpt>
      <trkpt lat="44.18041" lon="5.37488">
        <ele>503.25</ele>
        <time>2021-11-04T12:06:07Z</time>
      </trkpt>
      <trkpt lat="44.18033" lon="5.37482">
        <ele>503.57</ele>
        <time>2021-11-04T12:05:58Z</time>
      </trkpt>
      <trkpt lat="44.18027" lon="5.37474">
        <ele>503.88</ele>
        <time>2021-11-04T12:05:48Z</time>
      </trkpt>
      <trkpt lat="44.18022" lon="5.37463">
        <ele>504.27</ele>
        <time>2021-11-04T12:05:27Z</time>
      </trkpt>
      <trkpt lat="44.18015" lon="5.37452">
        <ele>505.2</ele>
        <time>2021-11-04T12:05:19Z</time>
      </trkpt>
      <trkpt lat="44.18005" lon="5.37445">
        <ele>505.76</ele>
        <time>2021-11-04T12:05:10Z</time>
      </trkpt>
      <trkpt lat="44.17995" lon="5.37443">
        <ele>506.02</ele>
        <time>2021-11-04T12:05:02Z</time>
      </trkpt>
      <trkpt lat="44.17986" lon="5.37442">
        <ele>506.76</ele>
        <time>2021-11-04T12:04:53Z</time>
      </trkpt>
      <trkpt lat="44.17977" lon="5.37446">
        <ele>508.09</ele>
        <time>2021-11-04T12:04:44Z</time>
      </trkpt>
      <trkpt lat="44.17969" lon="5.37454">
        <ele>508.36</ele>
        <time>2021-11-04T12:04:33Z</time>
      </trkpt>
      <trkpt lat="44.17964" lon="5.37464">
        <ele>508.31</ele>
        <time>2021-11-04T12:04:23Z</time>
      </trkpt>
      <trkpt lat="44.1796" lon="5.37472">
        <ele>508.67</ele>
        <time>2021-11-04T12:04:14Z</time>
      </trkpt>
      <trkpt lat="44.17953" lon="5.37467">
        <ele>508.76</ele>
        <time>2021-11-04T12:04:05Z</time>
      </trkpt>
      <trkpt lat="44.17946" lon="5.37457">
        <ele>509.59</ele>
        <time>2021-11-04T12:03:53Z</time>
      </trkpt>
      <trkpt lat="44.17936" lon="5.37461">
        <ele>509.85</ele>
        <time>2021-11-04T11:59:37Z</time>
      </trkpt>
      <trkpt lat="44.17926" lon="5.37469">
        <ele>509.54</ele>
        <time>2021-11-04T11:59:25Z</time>
      </trkpt>
      <trkpt lat="44.17918" lon="5.37476">
        <ele>509.29</ele>
        <time>2021-11-04T11:59:16Z</time>
      </trkpt>
      <trkpt lat="44.17909" lon="5.3748">
        <ele>509.61</ele>
        <time>2021-11-04T11:59:07Z</time>
      </trkpt>
      <trkpt lat="44.17897" lon="5.37481">
        <ele>511.34</ele>
        <time>2021-11-04T11:58:55Z</time>
      </trkpt>
      <trkpt lat="44.1789" lon="5.37487">
        <ele>512.37</ele>
        <time>2021-11-04T11:58:08Z</time>
      </trkpt>
      <trkpt lat="44.17887" lon="5.3749">
        <ele>498.16</ele>
        <time>2021-11-04T10:58:27Z</time>
      </trkpt>
      <trkpt lat="44.17894" lon="5.37488">
        <ele>498.08</ele>
        <time>2021-11-04T10:57:46Z</time>
      </trkpt>
      <trkpt lat="44.17903" lon="5.37483">
        <ele>495.1</ele>
        <time>2021-11-04T10:56:35Z</time>
      </trkpt>
      <trkpt lat="44.17913" lon="5.37484">
        <ele>495.01</ele>
        <time>2021-11-04T10:56:23Z</time>
      </trkpt>
      <trkpt lat="44.17921" lon="5.37482">
        <ele>494.34</ele>
        <time>2021-11-04T10:56:07Z</time>
      </trkpt>
      <trkpt lat="44.17929" lon="5.37473">
        <ele>494.37</ele>
        <time>2021-11-04T10:55:56Z</time>
      </trkpt>
      <trkpt lat="44.17937" lon="5.37465">
        <ele>494.83</ele>
        <time>2021-11-04T10:55:46Z</time>
      </trkpt>
      <trkpt lat="44.17947" lon="5.3746">
        <ele>494.88</ele>
        <time>2021-11-04T10:55:36Z</time>
      </trkpt>
      <trkpt lat="44.17957" lon="5.37454">
        <ele>494.4</ele>
        <time>2021-11-04T10:55:25Z</time>
      </trkpt>
      <trkpt lat="44.17965" lon="5.37446">
        <ele>494.48</ele>
        <time>2021-11-04T10:55:16Z</time>
      </trkpt>
      <trkpt lat="44.17966" lon="5.37444">
        <ele>494.49</ele>
        <time>2021-11-04T10:54:27Z</time>
      </trkpt>
      <trkpt lat="44.17971" lon="5.37429">
        <ele>494.84</ele>
        <time>2021-11-04T10:54:00Z</time>
      </trkpt>
      <trkpt lat="44.17971" lon="5.37416">
        <ele>495.72</ele>
        <time>2021-11-04T10:53:45Z</time>
      </trkpt>
      <trkpt lat="44.17976" lon="5.37409">
        <ele>496.63</ele>
        <time>2021-11-04T10:53:36Z</time>
      </trkpt>
      <trkpt lat="44.17987" lon="5.37404">
        <ele>497.26</ele>
        <time>2021-11-04T10:53:24Z</time>
      </trkpt>
      <trkpt lat="44.17993" lon="5.37396">
        <ele>497.41</ele>
        <time>2021-11-04T10:53:12Z</time>
      </trkpt>
      <trkpt lat="44.17994" lon="5.37382">
        <ele>497.94</ele>
        <time>2021-11-04T10:52:59Z</time>
      </trkpt>
      <trkpt lat="44.18" lon="5.37371">
        <ele>497.66</ele>
        <time>2021-11-04T10:52:37Z</time>
      </trkpt>
      <trkpt lat="44.18001" lon="5.37361">
        <ele>497.51</ele>
        <time>2021-11-04T10:52:22Z</time>
      </trkpt>
      <trkpt lat="44.18003" lon="5.37348">
        <ele>497</ele>
        <time>2021-11-04T10:52:13Z</time>
      </trkpt>
      <trkpt lat="44.18009" lon="5.37328">
        <ele>495.59</ele>
        <time>2021-11-04T10:52:01Z</time>
      </trkpt>
      <trkpt lat="44.18011" lon="5.37311">
        <ele>494.8</ele>
        <time>2021-11-04T10:51:50Z</time>
      </trkpt>
      <trkpt lat="44.18007" lon="5.37296">
        <ele>493.99</ele>
        <time>2021-11-04T10:51:38Z</time>
      </trkpt>
      <trkpt lat="44.18007" lon="5.37279">
        <ele>493.45</ele>
        <time>2021-11-04T10:51:24Z</time>
      </trkpt>
      <trkpt lat="44.18004" lon="5.37264">
        <ele>493.9</ele>
        <time>2021-11-04T10:51:13Z</time>
      </trkpt>
      <trkpt lat="44.18003" lon="5.37248">
        <ele>493.96</ele>
        <time>2021-11-04T10:51:03Z</time>
      </trkpt>
      <trkpt lat="44.18003" lon="5.37231">
        <ele>493.89</ele>
        <time>2021-11-04T10:50:52Z</time>
      </trkpt>
      <trkpt lat="44.18001" lon="5.37215">
        <ele>493.33</ele>
        <time>2021-11-04T10:50:40Z</time>
      </trkpt>
      <trkpt lat="44.18002" lon="5.37201">
        <ele>493.46</ele>
        <time>2021-11-04T10:50:30Z</time>
      </trkpt>
      <trkpt lat="44.18003" lon="5.37187">
        <ele>493.41</ele>
        <time>2021-11-04T10:50:20Z</time>
      </trkpt>
      <trkpt lat="44.18005" lon="5.37174">
        <ele>492.58</ele>
        <time>2021-11-04T10:50:09Z</time>
      </trkpt>
      <trkpt lat="44.18009" lon="5.3716">
        <ele>492.29</ele>
        <time>2021-11-04T10:49:59Z</time>
      </trkpt>
      <trkpt lat="44.18012" lon="5.37146">
        <ele>492.33</ele>
        <time>2021-11-04T10:49:50Z</time>
      </trkpt>
      <trkpt lat="44.18015" lon="5.37133">
        <ele>492.27</ele>
        <time>2021-11-04T10:49:40Z</time>
      </trkpt>
      <trkpt lat="44.1802" lon="5.3712">
        <ele>492.15</ele>
        <time>2021-11-04T10:49:30Z</time>
      </trkpt>
      <trkpt lat="44.18025" lon="5.37107">
        <ele>491.44</ele>
        <time>2021-11-04T10:49:14Z</time>
      </trkpt>
      <trkpt lat="44.18028" lon="5.37095">
        <ele>490.97</ele>
        <time>2021-11-04T10:49:02Z</time>
      </trkpt>
      <trkpt lat="44.1803" lon="5.37081">
        <ele>491.42</ele>
        <time>2021-11-04T10:48:52Z</time>
      </trkpt>
      <trkpt lat="44.18033" lon="5.3707">
        <ele>490.94</ele>
        <time>2021-11-04T10:48:44Z</time>
      </trkpt>
      <trkpt lat="44.18038" lon="5.37059">
        <ele>490.76</ele>
        <time>2021-11-04T10:48:35Z</time>
      </trkpt>
      <trkpt lat="44.18042" lon="5.37046">
        <ele>490.22</ele>
        <time>2021-11-04T10:48:26Z</time>
      </trkpt>
      <trkpt lat="44.18046" lon="5.37033">
        <ele>489.74</ele>
        <time>2021-11-04T10:48:16Z</time>
      </trkpt>
      <trkpt lat="44.18049" lon="5.3702">
        <ele>489.54</ele>
        <time>2021-11-04T10:48:07Z</time>
      </trkpt>
      <trkpt lat="44.18053" lon="5.37008">
        <ele>489.56</ele>
        <time>2021-11-04T10:47:59Z</time>
      </trkpt>
      <trkpt lat="44.18057" lon="5.36995">
        <ele>489.05</ele>
        <time>2021-11-04T10:47:51Z</time>
      </trkpt>
      <trkpt lat="44.18063" lon="5.36983">
        <ele>488.63</ele>
        <time>2021-11-04T10:47:42Z</time>
      </trkpt>
      <trkpt lat="44.18067" lon="5.36971">
        <ele>487.55</ele>
        <time>2021-11-04T10:47:34Z</time>
      </trkpt>
      <trkpt lat="44.18072" lon="5.36959">
        <ele>486.87</ele>
        <time>2021-11-04T10:47:25Z</time>
      </trkpt>
      <trkpt lat="44.18076" lon="5.36947">
        <ele>486.81</ele>
        <time>2021-11-04T10:47:17Z</time>
      </trkpt>
      <trkpt lat="44.18081" lon="5.36934">
        <ele>486.64</ele>
        <time>2021-11-04T10:47:08Z</time>
      </trkpt>
      <trkpt lat="44.18085" lon="5.36921">
        <ele>486.6</ele>
        <time>2021-11-04T10:47:00Z</time>
      </trkpt>
      <trkpt lat="44.18091" lon="5.36908">
        <ele>486.93</ele>
        <time>2021-11-04T10:46:48Z</time>
      </trkpt>
      <trkpt lat="44.18095" lon="5.36894">
        <ele>487.6</ele>
        <time>2021-11-04T10:46:39Z</time>
      </trkpt>
      <trkpt lat="44.18099" lon="5.36878">
        <ele>487.83</ele>
        <time>2021-11-04T10:46:30Z</time>
      </trkpt>
      <trkpt lat="44.181" lon="5.36864">
        <ele>488.37</ele>
        <time>2021-11-04T10:46:20Z</time>
      </trkpt>
      <trkpt lat="44.181" lon="5.3685">
        <ele>488.7</ele>
        <time>2021-11-04T10:46:11Z</time>
      </trkpt>
      <trkpt lat="44.181" lon="5.36835">
        <ele>489.12</ele>
        <time>2021-11-04T10:46:03Z</time>
      </trkpt>
      <trkpt lat="44.18099" lon="5.36819">
        <ele>489.66</ele>
        <time>2021-11-04T10:45:54Z</time>
      </trkpt>
      <trkpt lat="44.18097" lon="5.36803">
        <ele>489.99</ele>
        <time>2021-11-04T10:45:45Z</time>
      </trkpt>
      <trkpt lat="44.18096" lon="5.36782">
        <ele>489.81</ele>
        <time>2021-11-04T10:45:36Z</time>
      </trkpt>
      <trkpt lat="44.18093" lon="5.36764">
        <ele>489.63</ele>
        <time>2021-11-04T10:45:25Z</time>
      </trkpt>
      <trkpt lat="44.1809" lon="5.36749">
        <ele>489.66</ele>
        <time>2021-11-04T10:45:16Z</time>
      </trkpt>
      <trkpt lat="44.18089" lon="5.36735">
        <ele>489.23</ele>
        <time>2021-11-04T10:45:07Z</time>
      </trkpt>
      <trkpt lat="44.18086" lon="5.3672">
        <ele>489.25</ele>
        <time>2021-11-04T10:44:57Z</time>
      </trkpt>
      <trkpt lat="44.18086" lon="5.36703">
        <ele>487.77</ele>
        <time>2021-11-04T10:44:47Z</time>
      </trkpt>
      <trkpt lat="44.18086" lon="5.3669">
        <ele>488</ele>
        <time>2021-11-04T10:44:37Z</time>
      </trkpt>
      <trkpt lat="44.18086" lon="5.36675">
        <ele>486.86</ele>
        <time>2021-11-04T10:44:26Z</time>
      </trkpt>
      <trkpt lat="44.18087" lon="5.36661">
        <ele>486.21</ele>
        <time>2021-11-04T10:44:18Z</time>
      </trkpt>
      <trkpt lat="44.18088" lon="5.36647">
        <ele>485.93</ele>
        <time>2021-11-04T10:44:10Z</time>
      </trkpt>
      <trkpt lat="44.18088" lon="5.36631">
        <ele>485.64</ele>
        <time>2021-11-04T10:44:01Z</time>
      </trkpt>
      <trkpt lat="44.18088" lon="5.36617">
        <ele>485.25</ele>
        <time>2021-11-04T10:43:53Z</time>
      </trkpt>
      <trkpt lat="44.18089" lon="5.366">
        <ele>484.79</ele>
        <time>2021-11-04T10:43:45Z</time>
      </trkpt>
      <trkpt lat="44.18087" lon="5.36582">
        <ele>484.98</ele>
        <time>2021-11-04T10:43:35Z</time>
      </trkpt>
      <trkpt lat="44.18087" lon="5.36563">
        <ele>484.94</ele>
        <time>2021-11-04T10:43:24Z</time>
      </trkpt>
      <trkpt lat="44.18086" lon="5.36549">
        <ele>484.92</ele>
        <time>2021-11-04T10:43:14Z</time>
      </trkpt>
      <trkpt lat="44.18085" lon="5.36532">
        <ele>485.2</ele>
        <time>2021-11-04T10:43:02Z</time>
      </trkpt>
      <trkpt lat="44.18085" lon="5.36516">
        <ele>485.5</ele>
        <time>2021-11-04T10:42:51Z</time>
      </trkpt>
      <trkpt lat="44.18086" lon="5.36497">
        <ele>486.19</ele>
        <time>2021-11-04T10:42:40Z</time>
      </trkpt>
      <trkpt lat="44.18087" lon="5.36477">
        <ele>486.97</ele>
        <time>2021-11-04T10:42:29Z</time>
      </trkpt>
      <trkpt lat="44.18085" lon="5.3646">
        <ele>487.29</ele>
        <time>2021-11-04T10:42:17Z</time>
      </trkpt>
      <trkpt lat="44.18078" lon="5.36448">
        <ele>486.7</ele>
        <time>2021-11-04T10:42:06Z</time>
      </trkpt>
      <trkpt lat="44.18076" lon="5.36428">
        <ele>485.55</ele>
        <time>2021-11-04T10:41:53Z</time>
      </trkpt>
      <trkpt lat="44.18074" lon="5.36408">
        <ele>484.83</ele>
        <time>2021-11-04T10:41:42Z</time>
      </trkpt>
      <trkpt lat="44.18075" lon="5.3639">
        <ele>484.43</ele>
        <time>2021-11-04T10:41:29Z</time>
      </trkpt>
      <trkpt lat="44.18078" lon="5.36373">
        <ele>484.52</ele>
        <time>2021-11-04T10:41:18Z</time>
      </trkpt>
      <trkpt lat="44.18081" lon="5.36357">
        <ele>484.63</ele>
        <time>2021-11-04T10:41:07Z</time>
      </trkpt>
      <trkpt lat="44.18085" lon="5.36339">
        <ele>484.08</ele>
        <time>2021-11-04T10:40:56Z</time>
      </trkpt>
      <trkpt lat="44.18089" lon="5.3632">
        <ele>483.86</ele>
        <time>2021-11-04T10:40:43Z</time>
      </trkpt>
      <trkpt lat="44.18088" lon="5.36304">
        <ele>483.46</ele>
        <time>2021-11-04T10:40:32Z</time>
      </trkpt>
      <trkpt lat="44.1809" lon="5.36288">
        <ele>483.2</ele>
        <time>2021-11-04T10:40:21Z</time>
      </trkpt>
      <trkpt lat="44.18093" lon="5.36271">
        <ele>483.22</ele>
        <time>2021-11-04T10:40:10Z</time>
      </trkpt>
      <trkpt lat="44.18097" lon="5.36255">
        <ele>483.11</ele>
        <time>2021-11-04T10:40:01Z</time>
      </trkpt>
      <trkpt lat="44.18102" lon="5.36242">
        <ele>483.11</ele>
        <time>2021-11-04T10:39:51Z</time>
      </trkpt>
      <trkpt lat="44.18109" lon="5.36226">
        <ele>483.56</ele>
        <time>2021-11-04T10:39:41Z</time>
      </trkpt>
      <trkpt lat="44.18114" lon="5.36211">
        <ele>484.62</ele>
        <time>2021-11-04T10:39:29Z</time>
      </trkpt>
      <trkpt lat="44.18118" lon="5.36193">
        <ele>484.88</ele>
        <time>2021-11-04T10:39:16Z</time>
      </trkpt>
      <trkpt lat="44.18121" lon="5.36173">
        <ele>485.43</ele>
        <time>2021-11-04T10:39:02Z</time>
      </trkpt>
      <trkpt lat="44.18121" lon="5.36155">
        <ele>485.8</ele>
        <time>2021-11-04T10:38:47Z</time>
      </trkpt>
      <trkpt lat="44.18124" lon="5.36141">
        <ele>485.93</ele>
        <time>2021-11-04T10:38:35Z</time>
      </trkpt>
      <trkpt lat="44.18124" lon="5.36127">
        <ele>485.72</ele>
        <time>2021-11-04T10:38:24Z</time>
      </trkpt>
      <trkpt lat="44.18125" lon="5.36113">
        <ele>485.08</ele>
        <time>2021-11-04T10:38:13Z</time>
      </trkpt>
      <trkpt lat="44.18127" lon="5.36098">
        <ele>483.92</ele>
        <time>2021-11-04T10:38:01Z</time>
      </trkpt>
      <trkpt lat="44.18131" lon="5.36082">
        <ele>483.66</ele>
        <time>2021-11-04T10:37:50Z</time>
      </trkpt>
      <trkpt lat="44.18135" lon="5.36068">
        <ele>484.13</ele>
        <time>2021-11-04T10:37:39Z</time>
      </trkpt>
      <trkpt lat="44.18138" lon="5.36053">
        <ele>484.71</ele>
        <time>2021-11-04T10:37:26Z</time>
      </trkpt>
      <trkpt lat="44.1814" lon="5.36039">
        <ele>485.88</ele>
        <time>2021-11-04T10:37:17Z</time>
      </trkpt>
      <trkpt lat="44.18145" lon="5.36022">
        <ele>487.88</ele>
        <time>2021-11-04T10:37:06Z</time>
      </trkpt>
      <trkpt lat="44.18149" lon="5.36006">
        <ele>490.47</ele>
        <time>2021-11-04T10:36:49Z</time>
      </trkpt>
      <trkpt lat="44.18154" lon="5.35994">
        <ele>492.83</ele>
        <time>2021-11-04T10:36:34Z</time>
      </trkpt>
      <trkpt lat="44.18158" lon="5.35981">
        <ele>494.43</ele>
        <time>2021-11-04T10:36:22Z</time>
      </trkpt>
      <trkpt lat="44.18161" lon="5.35979">
        <ele>494.53</ele>
        <time>2021-11-04T10:35:08Z</time>
      </trkpt>
      <trkpt lat="44.18168" lon="5.35965">
        <ele>495.45</ele>
        <time>2021-11-04T10:34:39Z</time>
      </trkpt>
      <trkpt lat="44.18165" lon="5.35953">
        <ele>496.57</ele>
        <time>2021-11-04T10:34:27Z</time>
      </trkpt>
      <trkpt lat="44.18159" lon="5.35939">
        <ele>498.51</ele>
        <time>2021-11-04T10:34:14Z</time>
      </trkpt>
      <trkpt lat="44.18155" lon="5.35927">
        <ele>498.27</ele>
        <time>2021-11-04T10:33:59Z</time>
      </trkpt>
      <trkpt lat="44.18148" lon="5.35917">
        <ele>499.34</ele>
        <time>2021-11-04T10:33:43Z</time>
      </trkpt>
      <trkpt lat="44.18137" lon="5.35905">
        <ele>503</ele>
        <time>2021-11-04T10:33:27Z</time>
      </trkpt>
      <trkpt lat="44.18128" lon="5.35896">
        <ele>505.47</ele>
        <time>2021-11-04T10:33:13Z</time>
      </trkpt>
      <trkpt lat="44.18117" lon="5.35889">
        <ele>508.79</ele>
        <time>2021-11-04T10:32:56Z</time>
      </trkpt>
      <trkpt lat="44.18106" lon="5.35883">
        <ele>512.29</ele>
        <time>2021-11-04T10:32:40Z</time>
      </trkpt>
      <trkpt lat="44.18095" lon="5.35878">
        <ele>515.72</ele>
        <time>2021-11-04T10:32:23Z</time>
      </trkpt>
      <trkpt lat="44.1809" lon="5.35865">
        <ele>516.77</ele>
        <time>2021-11-04T10:32:12Z</time>
      </trkpt>
      <trkpt lat="44.18079" lon="5.35856">
        <ele>517.07</ele>
        <time>2021-11-04T10:31:58Z</time>
      </trkpt>
      <trkpt lat="44.1807" lon="5.35845">
        <ele>519.63</ele>
        <time>2021-11-04T10:31:41Z</time>
      </trkpt>
      <trkpt lat="44.18064" lon="5.35835">
        <ele>520.95</ele>
        <time>2021-11-04T10:31:20Z</time>
      </trkpt>
      <trkpt lat="44.18054" lon="5.35822">
        <ele>522.72</ele>
        <time>2021-11-04T10:31:03Z</time>
      </trkpt>
      <trkpt lat="44.18042" lon="5.35813">
        <ele>524.44</ele>
        <time>2021-11-04T10:30:44Z</time>
      </trkpt>
      <trkpt lat="44.18031" lon="5.35807">
        <ele>526.36</ele>
        <time>2021-11-04T10:30:25Z</time>
      </trkpt>
      <trkpt lat="44.18023" lon="5.35804">
        <ele>527.61</ele>
        <time>2021-11-04T10:30:08Z</time>
      </trkpt>
      <trkpt lat="44.1802" lon="5.3579">
        <ele>527.89</ele>
        <time>2021-11-04T10:29:50Z</time>
      </trkpt>
      <trkpt lat="44.18013" lon="5.3578">
        <ele>528.32</ele>
        <time>2021-11-04T10:29:40Z</time>
      </trkpt>
      <trkpt lat="44.18015" lon="5.35758">
        <ele>528.86</ele>
        <time>2021-11-04T10:29:23Z</time>
      </trkpt>
      <trkpt lat="44.18018" lon="5.35743">
        <ele>529.09</ele>
        <time>2021-11-04T10:29:07Z</time>
      </trkpt>
      <trkpt lat="44.18023" lon="5.35732">
        <ele>530.02</ele>
        <time>2021-11-04T10:28:55Z</time>
      </trkpt>
      <trkpt lat="44.18027" lon="5.35716">
        <ele>531.66</ele>
        <time>2021-11-04T10:28:40Z</time>
      </trkpt>
      <trkpt lat="44.18021" lon="5.35702">
        <ele>533.48</ele>
        <time>2021-11-04T10:28:24Z</time>
      </trkpt>
      <trkpt lat="44.18017" lon="5.35686">
        <ele>533.93</ele>
        <time>2021-11-04T10:28:11Z</time>
      </trkpt>
      <trkpt lat="44.1801" lon="5.35677">
        <ele>534.8</ele>
        <time>2021-11-04T10:27:53Z</time>
      </trkpt>
      <trkpt lat="44.18004" lon="5.35658">
        <ele>534.15</ele>
        <time>2021-11-04T10:27:39Z</time>
      </trkpt>
      <trkpt lat="44.17996" lon="5.35645">
        <ele>534.32</ele>
        <time>2021-11-04T10:27:27Z</time>
      </trkpt>
      <trkpt lat="44.17992" lon="5.35624">
        <ele>534.64</ele>
        <time>2021-11-04T10:27:11Z</time>
      </trkpt>
      <trkpt lat="44.17987" lon="5.35606">
        <ele>535.01</ele>
        <time>2021-11-04T10:26:55Z</time>
      </trkpt>
      <trkpt lat="44.1798" lon="5.35592">
        <ele>535.36</ele>
        <time>2021-11-04T10:26:40Z</time>
      </trkpt>
      <trkpt lat="44.17965" lon="5.35582">
        <ele>536.6</ele>
        <time>2021-11-04T10:26:23Z</time>
      </trkpt>
      <trkpt lat="44.17953" lon="5.35576">
        <ele>538.89</ele>
        <time>2021-11-04T10:26:03Z</time>
      </trkpt>
      <trkpt lat="44.17943" lon="5.35571">
        <ele>541.11</ele>
        <time>2021-11-04T10:25:43Z</time>
      </trkpt>
      <trkpt lat="44.17937" lon="5.35566">
        <ele>541.67</ele>
        <time>2021-11-04T10:24:32Z</time>
      </trkpt>
      <trkpt lat="44.17934" lon="5.35567">
        <ele>541.1</ele>
        <time>2021-11-04T10:22:25Z</time>
      </trkpt>
      <trkpt lat="44.17927" lon="5.35579">
        <ele>540.68</ele>
        <time>2021-11-04T10:22:11Z</time>
      </trkpt>
      <trkpt lat="44.17925" lon="5.3558">
        <ele>539.92</ele>
        <time>2021-11-04T10:21:28Z</time>
      </trkpt>
      <trkpt lat="44.17919" lon="5.35573">
        <ele>539.5</ele>
        <time>2021-11-04T10:21:04Z</time>
      </trkpt>
      <trkpt lat="44.17907" lon="5.35564">
        <ele>540.71</ele>
        <time>2021-11-04T10:20:47Z</time>
      </trkpt>
      <trkpt lat="44.17899" lon="5.35556">
        <ele>543.4</ele>
        <time>2021-11-04T10:20:33Z</time>
      </trkpt>
      <trkpt lat="44.17883" lon="5.35548">
        <ele>545.24</ele>
        <time>2021-11-04T10:20:18Z</time>
      </trkpt>
      <trkpt lat="44.17872" lon="5.35534">
        <ele>547.75</ele>
        <time>2021-11-04T10:20:00Z</time>
      </trkpt>
      <trkpt lat="44.17863" lon="5.35513">
        <ele>549.64</ele>
        <time>2021-11-04T10:19:44Z</time>
      </trkpt>
      <trkpt lat="44.17851" lon="5.35501">
        <ele>552.48</ele>
        <time>2021-11-04T10:19:23Z</time>
      </trkpt>
      <trkpt lat="44.17842" lon="5.35496">
        <ele>554.59</ele>
        <time>2021-11-04T10:19:01Z</time>
      </trkpt>
      <trkpt lat="44.17825" lon="5.35496">
        <ele>556.86</ele>
        <time>2021-11-04T10:18:47Z</time>
      </trkpt>
      <trkpt lat="44.17811" lon="5.35494">
        <ele>559.82</ele>
        <time>2021-11-04T10:18:34Z</time>
      </trkpt>
      <trkpt lat="44.17798" lon="5.35488">
        <ele>562.24</ele>
        <time>2021-11-04T10:18:18Z</time>
      </trkpt>
      <trkpt lat="44.17782" lon="5.35481">
        <ele>564.45</ele>
        <time>2021-11-04T10:18:02Z</time>
      </trkpt>
      <trkpt lat="44.1777" lon="5.35472">
        <ele>567.28</ele>
        <time>2021-11-04T10:17:45Z</time>
      </trkpt>
      <trkpt lat="44.17755" lon="5.35474">
        <ele>569.31</ele>
        <time>2021-11-04T10:17:30Z</time>
      </trkpt>
      <trkpt lat="44.17741" lon="5.35475">
        <ele>571.51</ele>
        <time>2021-11-04T10:17:11Z</time>
      </trkpt>
      <trkpt lat="44.17728" lon="5.35477">
        <ele>573.43</ele>
        <time>2021-11-04T10:16:56Z</time>
      </trkpt>
      <trkpt lat="44.1771" lon="5.35478">
        <ele>575.86</ele>
        <time>2021-11-04T10:16:41Z</time>
      </trkpt>
      <trkpt lat="44.17694" lon="5.35478">
        <ele>577.43</ele>
        <time>2021-11-04T10:16:29Z</time>
      </trkpt>
      <trkpt lat="44.17676" lon="5.35481">
        <ele>580.08</ele>
        <time>2021-11-04T10:16:12Z</time>
      </trkpt>
      <trkpt lat="44.17667" lon="5.35479">
        <ele>581.75</ele>
        <time>2021-11-04T10:16:00Z</time>
      </trkpt>
      <trkpt lat="44.17651" lon="5.35475">
        <ele>584.45</ele>
        <time>2021-11-04T10:15:42Z</time>
      </trkpt>
      <trkpt lat="44.17634" lon="5.35473">
        <ele>587.86</ele>
        <time>2021-11-04T10:15:24Z</time>
      </trkpt>
      <trkpt lat="44.17619" lon="5.35465">
        <ele>591.79</ele>
        <time>2021-11-04T10:15:06Z</time>
      </trkpt>
      <trkpt lat="44.17608" lon="5.35458">
        <ele>594.12</ele>
        <time>2021-11-04T10:14:53Z</time>
      </trkpt>
      <trkpt lat="44.1759" lon="5.35448">
        <ele>597.07</ele>
        <time>2021-11-04T10:14:35Z</time>
      </trkpt>
      <trkpt lat="44.17575" lon="5.35441">
        <ele>600.21</ele>
        <time>2021-11-04T10:14:19Z</time>
      </trkpt>
      <trkpt lat="44.17568" lon="5.35426">
        <ele>603.1</ele>
        <time>2021-11-04T10:14:01Z</time>
      </trkpt>
      <trkpt lat="44.17561" lon="5.35409">
        <ele>605.07</ele>
        <time>2021-11-04T10:13:47Z</time>
      </trkpt>
      <trkpt lat="44.1755" lon="5.35394">
        <ele>607.91</ele>
        <time>2021-11-04T10:13:33Z</time>
      </trkpt>
      <trkpt lat="44.17548" lon="5.3538">
        <ele>610.46</ele>
        <time>2021-11-04T10:13:19Z</time>
      </trkpt>
      <trkpt lat="44.17552" lon="5.35368">
        <ele>611.91</ele>
        <time>2021-11-04T10:13:00Z</time>
      </trkpt>
      <trkpt lat="44.17557" lon="5.35354">
        <ele>613.2</ele>
        <time>2021-11-04T10:12:47Z</time>
      </trkpt>
      <trkpt lat="44.17561" lon="5.3534">
        <ele>614.09</ele>
        <time>2021-11-04T10:12:35Z</time>
      </trkpt>
      <trkpt lat="44.17567" lon="5.35326">
        <ele>613.88</ele>
        <time>2021-11-04T10:09:06Z</time>
      </trkpt>
      <trkpt lat="44.17578" lon="5.35316">
        <ele>615.46</ele>
        <time>2021-11-04T10:08:54Z</time>
      </trkpt>
      <trkpt lat="44.17589" lon="5.3531">
        <ele>616.91</ele>
        <time>2021-11-04T10:08:41Z</time>
      </trkpt>
      <trkpt lat="44.17598" lon="5.35302">
        <ele>617.79</ele>
        <time>2021-11-04T10:08:31Z</time>
      </trkpt>
      <trkpt lat="44.17608" lon="5.35296">
        <ele>618.81</ele>
        <time>2021-11-04T10:08:21Z</time>
      </trkpt>
      <trkpt lat="44.17619" lon="5.35286">
        <ele>619.96</ele>
        <time>2021-11-04T10:08:12Z</time>
      </trkpt>
      <trkpt lat="44.17635" lon="5.35266">
        <ele>621.1</ele>
        <time>2021-11-04T10:08:00Z</time>
      </trkpt>
      <trkpt lat="44.17638" lon="5.3525">
        <ele>621.93</ele>
        <time>2021-11-04T10:07:50Z</time>
      </trkpt>
      <trkpt lat="44.17633" lon="5.35235">
        <ele>622.52</ele>
        <time>2021-11-04T10:07:40Z</time>
      </trkpt>
      <trkpt lat="44.1763" lon="5.35222">
        <ele>622.92</ele>
        <time>2021-11-04T10:07:30Z</time>
      </trkpt>
      <trkpt lat="44.17632" lon="5.3521">
        <ele>624.06</ele>
        <time>2021-11-04T10:07:17Z</time>
      </trkpt>
      <trkpt lat="44.17641" lon="5.35203">
        <ele>625.47</ele>
        <time>2021-11-04T10:07:03Z</time>
      </trkpt>
      <trkpt lat="44.17649" lon="5.35197">
        <ele>627</ele>
        <time>2021-11-04T10:06:50Z</time>
      </trkpt>
      <trkpt lat="44.17655" lon="5.35186">
        <ele>627.87</ele>
        <time>2021-11-04T10:06:37Z</time>
      </trkpt>
      <trkpt lat="44.1767" lon="5.35165">
        <ele>628.59</ele>
        <time>2021-11-04T10:06:22Z</time>
      </trkpt>
      <trkpt lat="44.17674" lon="5.35148">
        <ele>628.7</ele>
        <time>2021-11-04T10:06:11Z</time>
      </trkpt>
      <trkpt lat="44.17676" lon="5.3513">
        <ele>628.34</ele>
        <time>2021-11-04T10:06:00Z</time>
      </trkpt>
      <trkpt lat="44.1768" lon="5.3511">
        <ele>627.63</ele>
        <time>2021-11-04T10:05:48Z</time>
      </trkpt>
      <trkpt lat="44.17675" lon="5.35096">
        <ele>626.84</ele>
        <time>2021-11-04T10:05:38Z</time>
      </trkpt>
      <trkpt lat="44.17674" lon="5.35079">
        <ele>626.97</ele>
        <time>2021-11-04T10:05:27Z</time>
      </trkpt>
      <trkpt lat="44.17679" lon="5.3506">
        <ele>627.36</ele>
        <time>2021-11-04T10:05:14Z</time>
      </trkpt>
      <trkpt lat="44.17679" lon="5.3504">
        <ele>628.42</ele>
        <time>2021-11-04T10:05:02Z</time>
      </trkpt>
      <trkpt lat="44.17679" lon="5.35024">
        <ele>629.54</ele>
        <time>2021-11-04T10:04:52Z</time>
      </trkpt>
      <trkpt lat="44.17678" lon="5.35008">
        <ele>630.09</ele>
        <time>2021-11-04T10:04:39Z</time>
      </trkpt>
      <trkpt lat="44.17677" lon="5.34995">
        <ele>630.14</ele>
        <time>2021-11-04T10:04:26Z</time>
      </trkpt>
      <trkpt lat="44.17665" lon="5.3498">
        <ele>629.78</ele>
        <time>2021-11-04T10:04:14Z</time>
      </trkpt>
      <trkpt lat="44.17654" lon="5.34976">
        <ele>629.2</ele>
        <time>2021-11-04T10:04:01Z</time>
      </trkpt>
      <trkpt lat="44.1764" lon="5.34979">
        <ele>627.97</ele>
        <time>2021-11-04T10:03:47Z</time>
      </trkpt>
      <trkpt lat="44.17623" lon="5.34979">
        <ele>626.9</ele>
        <time>2021-11-04T10:03:31Z</time>
      </trkpt>
      <trkpt lat="44.17609" lon="5.34974">
        <ele>626</ele>
        <time>2021-11-04T10:03:17Z</time>
      </trkpt>
      <trkpt lat="44.17597" lon="5.34967">
        <ele>624.96</ele>
        <time>2021-11-04T10:03:05Z</time>
      </trkpt>
      <trkpt lat="44.17584" lon="5.34958">
        <ele>623.67</ele>
        <time>2021-11-04T10:02:53Z</time>
      </trkpt>
      <trkpt lat="44.17565" lon="5.34946">
        <ele>622.35</ele>
        <time>2021-11-04T10:02:39Z</time>
      </trkpt>
      <trkpt lat="44.17554" lon="5.34933">
        <ele>621.25</ele>
        <time>2021-11-04T10:02:23Z</time>
      </trkpt>
      <trkpt lat="44.1755" lon="5.34918">
        <ele>620.47</ele>
        <time>2021-11-04T10:02:10Z</time>
      </trkpt>
      <trkpt lat="44.17543" lon="5.34903">
        <ele>620.09</ele>
        <time>2021-11-04T10:01:59Z</time>
      </trkpt>
      <trkpt lat="44.17534" lon="5.34889">
        <ele>620.14</ele>
        <time>2021-11-04T10:01:47Z</time>
      </trkpt>
      <trkpt lat="44.17528" lon="5.34873">
        <ele>620.46</ele>
        <time>2021-11-04T10:01:36Z</time>
      </trkpt>
      <trkpt lat="44.17521" lon="5.3486">
        <ele>620.46</ele>
        <time>2021-11-04T10:01:26Z</time>
      </trkpt>
      <trkpt lat="44.1751" lon="5.34849">
        <ele>620.42</ele>
        <time>2021-11-04T10:01:16Z</time>
      </trkpt>
      <trkpt lat="44.17514" lon="5.34826">
        <ele>619.79</ele>
        <time>2021-11-04T10:01:03Z</time>
      </trkpt>
      <trkpt lat="44.17509" lon="5.34814">
        <ele>619.38</ele>
        <time>2021-11-04T10:00:55Z</time>
      </trkpt>
      <trkpt lat="44.17508" lon="5.34798">
        <ele>619.46</ele>
        <time>2021-11-04T10:00:43Z</time>
      </trkpt>
      <trkpt lat="44.17509" lon="5.34781">
        <ele>619.13</ele>
        <time>2021-11-04T10:00:31Z</time>
      </trkpt>
      <trkpt lat="44.17513" lon="5.3476">
        <ele>619.22</ele>
        <time>2021-11-04T10:00:19Z</time>
      </trkpt>
      <trkpt lat="44.1751" lon="5.34745">
        <ele>618.66</ele>
        <time>2021-11-04T10:00:07Z</time>
      </trkpt>
      <trkpt lat="44.17514" lon="5.34727">
        <ele>618.14</ele>
        <time>2021-11-04T09:59:55Z</time>
      </trkpt>
      <trkpt lat="44.17518" lon="5.34707">
        <ele>617.3</ele>
        <time>2021-11-04T09:59:42Z</time>
      </trkpt>
      <trkpt lat="44.17528" lon="5.34694">
        <ele>615.38</ele>
        <time>2021-11-04T09:59:27Z</time>
      </trkpt>
      <trkpt lat="44.17534" lon="5.34675">
        <ele>613.6</ele>
        <time>2021-11-04T09:59:13Z</time>
      </trkpt>
      <trkpt lat="44.17538" lon="5.34654">
        <ele>612.22</ele>
        <time>2021-11-04T09:59:00Z</time>
      </trkpt>
      <trkpt lat="44.17539" lon="5.34629">
        <ele>610.36</ele>
        <time>2021-11-04T09:58:47Z</time>
      </trkpt>
      <trkpt lat="44.17539" lon="5.34613">
        <ele>609.01</ele>
        <time>2021-11-04T09:58:35Z</time>
      </trkpt>
      <trkpt lat="44.17534" lon="5.346">
        <ele>608.08</ele>
        <time>2021-11-04T09:58:23Z</time>
      </trkpt>
      <trkpt lat="44.17535" lon="5.3458">
        <ele>606.76</ele>
        <time>2021-11-04T09:58:09Z</time>
      </trkpt>
      <trkpt lat="44.17532" lon="5.34564">
        <ele>605.36</ele>
        <time>2021-11-04T09:57:54Z</time>
      </trkpt>
      <trkpt lat="44.17528" lon="5.34536">
        <ele>601.6</ele>
        <time>2021-11-04T09:55:41Z</time>
      </trkpt>
      <trkpt lat="44.17533" lon="5.34528">
        <ele>601.63</ele>
        <time>2021-11-04T09:55:20Z</time>
      </trkpt>
      <trkpt lat="44.17545" lon="5.34524">
        <ele>602.03</ele>
        <time>2021-11-04T09:55:08Z</time>
      </trkpt>
      <trkpt lat="44.17554" lon="5.34518">
        <ele>602.64</ele>
        <time>2021-11-04T09:55:00Z</time>
      </trkpt>
      <trkpt lat="44.17563" lon="5.34514">
        <ele>603.42</ele>
        <time>2021-11-04T09:54:51Z</time>
      </trkpt>
      <trkpt lat="44.17573" lon="5.34507">
        <ele>603.9</ele>
        <time>2021-11-04T09:54:40Z</time>
      </trkpt>
      <trkpt lat="44.17581" lon="5.34497">
        <ele>604.53</ele>
        <time>2021-11-04T09:54:31Z</time>
      </trkpt>
      <trkpt lat="44.17589" lon="5.34488">
        <ele>605.48</ele>
        <time>2021-11-04T09:54:21Z</time>
      </trkpt>
      <trkpt lat="44.17597" lon="5.34477">
        <ele>606.53</ele>
        <time>2021-11-04T09:54:11Z</time>
      </trkpt>
      <trkpt lat="44.17605" lon="5.34468">
        <ele>607.45</ele>
        <time>2021-11-04T09:54:02Z</time>
      </trkpt>
      <trkpt lat="44.17613" lon="5.34459">
        <ele>607.72</ele>
        <time>2021-11-04T09:53:54Z</time>
      </trkpt>
      <trkpt lat="44.17621" lon="5.3445">
        <ele>608.53</ele>
        <time>2021-11-04T09:53:45Z</time>
      </trkpt>
      <trkpt lat="44.17629" lon="5.34438">
        <ele>609.26</ele>
        <time>2021-11-04T09:53:35Z</time>
      </trkpt>
      <trkpt lat="44.17637" lon="5.34428">
        <ele>610.17</ele>
        <time>2021-11-04T09:53:26Z</time>
      </trkpt>
      <trkpt lat="44.17645" lon="5.34422">
        <ele>610.73</ele>
        <time>2021-11-04T09:53:17Z</time>
      </trkpt>
      <trkpt lat="44.17655" lon="5.34419">
        <ele>611.4</ele>
        <time>2021-11-04T09:53:07Z</time>
      </trkpt>
      <trkpt lat="44.17666" lon="5.34421">
        <ele>611.79</ele>
        <time>2021-11-04T09:52:58Z</time>
      </trkpt>
      <trkpt lat="44.17675" lon="5.34428">
        <ele>612.6</ele>
        <time>2021-11-04T09:52:49Z</time>
      </trkpt>
      <trkpt lat="44.17684" lon="5.34438">
        <ele>613.5</ele>
        <time>2021-11-04T09:52:40Z</time>
      </trkpt>
      <trkpt lat="44.17694" lon="5.34446">
        <ele>614.68</ele>
        <time>2021-11-04T09:52:29Z</time>
      </trkpt>
      <trkpt lat="44.17702" lon="5.34442">
        <ele>616.01</ele>
        <time>2021-11-04T09:52:19Z</time>
      </trkpt>
      <trkpt lat="44.17708" lon="5.34432">
        <ele>617.55</ele>
        <time>2021-11-04T09:52:10Z</time>
      </trkpt>
      <trkpt lat="44.17704" lon="5.34418">
        <ele>618.64</ele>
        <time>2021-11-04T09:52:00Z</time>
      </trkpt>
      <trkpt lat="44.17696" lon="5.34398">
        <ele>619.79</ele>
        <time>2021-11-04T09:51:48Z</time>
      </trkpt>
      <trkpt lat="44.17685" lon="5.3439">
        <ele>620.51</ele>
        <time>2021-11-04T09:51:38Z</time>
      </trkpt>
      <trkpt lat="44.17677" lon="5.34378">
        <ele>621.22</ele>
        <time>2021-11-04T09:51:26Z</time>
      </trkpt>
      <trkpt lat="44.17667" lon="5.34368">
        <ele>621.53</ele>
        <time>2021-11-04T09:51:16Z</time>
      </trkpt>
      <trkpt lat="44.17661" lon="5.34357">
        <ele>622.44</ele>
        <time>2021-11-04T09:51:06Z</time>
      </trkpt>
      <trkpt lat="44.17651" lon="5.34345">
        <ele>623.48</ele>
        <time>2021-11-04T09:50:56Z</time>
      </trkpt>
      <trkpt lat="44.17643" lon="5.34334">
        <ele>624.56</ele>
        <time>2021-11-04T09:50:46Z</time>
      </trkpt>
      <trkpt lat="44.17627" lon="5.34332">
        <ele>625.66</ele>
        <time>2021-11-04T09:50:37Z</time>
      </trkpt>
      <trkpt lat="44.1762" lon="5.34319">
        <ele>626.79</ele>
        <time>2021-11-04T09:50:26Z</time>
      </trkpt>
      <trkpt lat="44.17611" lon="5.34306">
        <ele>627.71</ele>
        <time>2021-11-04T09:50:15Z</time>
      </trkpt>
      <trkpt lat="44.17601" lon="5.34288">
        <ele>628.35</ele>
        <time>2021-11-04T09:50:03Z</time>
      </trkpt>
      <trkpt lat="44.17594" lon="5.34268">
        <ele>629.93</ele>
        <time>2021-11-04T09:49:48Z</time>
      </trkpt>
      <trkpt lat="44.17598" lon="5.34246">
        <ele>631.18</ele>
        <time>2021-11-04T09:49:37Z</time>
      </trkpt>
      <trkpt lat="44.17595" lon="5.34229">
        <ele>631.84</ele>
        <time>2021-11-04T09:49:24Z</time>
      </trkpt>
      <trkpt lat="44.17592" lon="5.34214">
        <ele>631.6</ele>
        <time>2021-11-04T09:49:12Z</time>
      </trkpt>
      <trkpt lat="44.17585" lon="5.34199">
        <ele>631.3</ele>
        <time>2021-11-04T09:49:02Z</time>
      </trkpt>
      <trkpt lat="44.17582" lon="5.34186">
        <ele>630.8</ele>
        <time>2021-11-04T09:48:51Z</time>
      </trkpt>
      <trkpt lat="44.17577" lon="5.34169">
        <ele>630.31</ele>
        <time>2021-11-04T09:48:38Z</time>
      </trkpt>
      <trkpt lat="44.17572" lon="5.34151">
        <ele>630.29</ele>
        <time>2021-11-04T09:48:26Z</time>
      </trkpt>
      <trkpt lat="44.17564" lon="5.34137">
        <ele>630.29</ele>
        <time>2021-11-04T09:48:14Z</time>
      </trkpt>
      <trkpt lat="44.1756" lon="5.34123">
        <ele>630.25</ele>
        <time>2021-11-04T09:48:00Z</time>
      </trkpt>
      <trkpt lat="44.17565" lon="5.34114">
        <ele>630.15</ele>
        <time>2021-11-04T09:47:50Z</time>
      </trkpt>
      <trkpt lat="44.17572" lon="5.34104">
        <ele>630.39</ele>
        <time>2021-11-04T09:47:41Z</time>
      </trkpt>
      <trkpt lat="44.17581" lon="5.34089">
        <ele>629.64</ele>
        <time>2021-11-04T09:47:30Z</time>
      </trkpt>
      <trkpt lat="44.1759" lon="5.34078">
        <ele>629.09</ele>
        <time>2021-11-04T09:47:19Z</time>
      </trkpt>
      <trkpt lat="44.17599" lon="5.34065">
        <ele>627.83</ele>
        <time>2021-11-04T09:47:06Z</time>
      </trkpt>
      <trkpt lat="44.17604" lon="5.34047">
        <ele>627.27</ele>
        <time>2021-11-04T09:46:51Z</time>
      </trkpt>
      <trkpt lat="44.17612" lon="5.34028">
        <ele>626.46</ele>
        <time>2021-11-04T09:46:40Z</time>
      </trkpt>
      <trkpt lat="44.17617" lon="5.34003">
        <ele>625.68</ele>
        <time>2021-11-04T09:46:27Z</time>
      </trkpt>
      <trkpt lat="44.17618" lon="5.33982">
        <ele>624.64</ele>
        <time>2021-11-04T09:46:11Z</time>
      </trkpt>
      <trkpt lat="44.17618" lon="5.33964">
        <ele>623.53</ele>
        <time>2021-11-04T09:45:58Z</time>
      </trkpt>
      <trkpt lat="44.17619" lon="5.33941">
        <ele>623.13</ele>
        <time>2021-11-04T09:45:44Z</time>
      </trkpt>
      <trkpt lat="44.17622" lon="5.33923">
        <ele>621.99</ele>
        <time>2021-11-04T09:45:30Z</time>
      </trkpt>
      <trkpt lat="44.17629" lon="5.33903">
        <ele>621.47</ele>
        <time>2021-11-04T09:45:18Z</time>
      </trkpt>
      <trkpt lat="44.17633" lon="5.33883">
        <ele>620.46</ele>
        <time>2021-11-04T09:45:03Z</time>
      </trkpt>
      <trkpt lat="44.17638" lon="5.33859">
        <ele>619.93</ele>
        <time>2021-11-04T09:44:46Z</time>
      </trkpt>
      <trkpt lat="44.17639" lon="5.33837">
        <ele>618.73</ele>
        <time>2021-11-04T09:44:30Z</time>
      </trkpt>
      <trkpt lat="44.17639" lon="5.33818">
        <ele>617.97</ele>
        <time>2021-11-04T09:44:14Z</time>
      </trkpt>
      <trkpt lat="44.17641" lon="5.33797">
        <ele>617.5</ele>
        <time>2021-11-04T09:44:00Z</time>
      </trkpt>
      <trkpt lat="44.17641" lon="5.3378">
        <ele>616.82</ele>
        <time>2021-11-04T09:43:48Z</time>
      </trkpt>
      <trkpt lat="44.1764" lon="5.33758">
        <ele>615.65</ele>
        <time>2021-11-04T09:43:35Z</time>
      </trkpt>
      <trkpt lat="44.17639" lon="5.3374">
        <ele>614.77</ele>
        <time>2021-11-04T09:43:22Z</time>
      </trkpt>
      <trkpt lat="44.17644" lon="5.33722">
        <ele>614.48</ele>
        <time>2021-11-04T09:43:11Z</time>
      </trkpt>
      <trkpt lat="44.17651" lon="5.33698">
        <ele>614.31</ele>
        <time>2021-11-04T09:42:57Z</time>
      </trkpt>
      <trkpt lat="44.17649" lon="5.33684">
        <ele>613.68</ele>
        <time>2021-11-04T09:42:42Z</time>
      </trkpt>
      <trkpt lat="44.17654" lon="5.33663">
        <ele>613.9</ele>
        <time>2021-11-04T09:42:29Z</time>
      </trkpt>
      <trkpt lat="44.17661" lon="5.33646">
        <ele>613.33</ele>
        <time>2021-11-04T09:42:17Z</time>
      </trkpt>
      <trkpt lat="44.17666" lon="5.33632">
        <ele>612.43</ele>
        <time>2021-11-04T09:42:05Z</time>
      </trkpt>
      <trkpt lat="44.17673" lon="5.33623">
        <ele>611.78</ele>
        <time>2021-11-04T09:41:55Z</time>
      </trkpt>
      <trkpt lat="44.17683" lon="5.33614">
        <ele>611.41</ele>
        <time>2021-11-04T09:41:47Z</time>
      </trkpt>
      <trkpt lat="44.17695" lon="5.33603">
        <ele>610.74</ele>
        <time>2021-11-04T09:41:35Z</time>
      </trkpt>
      <trkpt lat="44.17706" lon="5.33592">
        <ele>610.02</ele>
        <time>2021-11-04T09:41:24Z</time>
      </trkpt>
      <trkpt lat="44.17715" lon="5.33583">
        <ele>609.54</ele>
        <time>2021-11-04T09:41:13Z</time>
      </trkpt>
      <trkpt lat="44.17728" lon="5.33573">
        <ele>608.76</ele>
        <time>2021-11-04T09:41:00Z</time>
      </trkpt>
      <trkpt lat="44.17739" lon="5.33573">
        <ele>608.1</ele>
        <time>2021-11-04T09:40:47Z</time>
      </trkpt>
      <trkpt lat="44.17751" lon="5.33569">
        <ele>607.43</ele>
        <time>2021-11-04T09:40:32Z</time>
      </trkpt>
      <trkpt lat="44.17761" lon="5.33563">
        <ele>606.69</ele>
        <time>2021-11-04T09:40:20Z</time>
      </trkpt>
      <trkpt lat="44.17772" lon="5.3356">
        <ele>605.69</ele>
        <time>2021-11-04T09:40:08Z</time>
      </trkpt>
      <trkpt lat="44.17783" lon="5.33558">
        <ele>604.84</ele>
        <time>2021-11-04T09:39:56Z</time>
      </trkpt>
      <trkpt lat="44.17803" lon="5.33548">
        <ele>604.18</ele>
        <time>2021-11-04T09:35:53Z</time>
      </trkpt>
      <trkpt lat="44.1781" lon="5.33543">
        <ele>602.52</ele>
        <time>2021-11-04T09:35:41Z</time>
      </trkpt>
      <trkpt lat="44.17804" lon="5.33527">
        <ele>600.97</ele>
        <time>2021-11-04T09:35:29Z</time>
      </trkpt>
      <trkpt lat="44.17799" lon="5.33513">
        <ele>600.08</ele>
        <time>2021-11-04T09:35:18Z</time>
      </trkpt>
      <trkpt lat="44.17791" lon="5.33495">
        <ele>599.11</ele>
        <time>2021-11-04T09:35:06Z</time>
      </trkpt>
      <trkpt lat="44.17786" lon="5.33475">
        <ele>597.8</ele>
        <time>2021-11-04T09:34:54Z</time>
      </trkpt>
      <trkpt lat="44.1778" lon="5.33453">
        <ele>595.94</ele>
        <time>2021-11-04T09:34:37Z</time>
      </trkpt>
      <trkpt lat="44.17783" lon="5.33428">
        <ele>594.16</ele>
        <time>2021-11-04T09:34:18Z</time>
      </trkpt>
      <trkpt lat="44.17791" lon="5.33407">
        <ele>593.26</ele>
        <time>2021-11-04T09:34:02Z</time>
      </trkpt>
      <trkpt lat="44.17796" lon="5.33388">
        <ele>592.27</ele>
        <time>2021-11-04T09:33:47Z</time>
      </trkpt>
      <trkpt lat="44.178" lon="5.33369">
        <ele>591.39</ele>
        <time>2021-11-04T09:33:35Z</time>
      </trkpt>
      <trkpt lat="44.17804" lon="5.33349">
        <ele>590.56</ele>
        <time>2021-11-04T09:33:22Z</time>
      </trkpt>
      <trkpt lat="44.17804" lon="5.33331">
        <ele>589.9</ele>
        <time>2021-11-04T09:33:10Z</time>
      </trkpt>
      <trkpt lat="44.17805" lon="5.33314">
        <ele>589.04</ele>
        <time>2021-11-04T09:32:58Z</time>
      </trkpt>
      <trkpt lat="44.17806" lon="5.33298">
        <ele>588.38</ele>
        <time>2021-11-04T09:32:46Z</time>
      </trkpt>
      <trkpt lat="44.17807" lon="5.33278">
        <ele>588.05</ele>
        <time>2021-11-04T09:32:34Z</time>
      </trkpt>
      <trkpt lat="44.17811" lon="5.33257">
        <ele>587.82</ele>
        <time>2021-11-04T09:32:22Z</time>
      </trkpt>
      <trkpt lat="44.17816" lon="5.33239">
        <ele>588.02</ele>
        <time>2021-11-04T09:32:10Z</time>
      </trkpt>
      <trkpt lat="44.17816" lon="5.33217">
        <ele>588.1</ele>
        <time>2021-11-04T09:31:55Z</time>
      </trkpt>
      <trkpt lat="44.17812" lon="5.33202">
        <ele>587.74</ele>
        <time>2021-11-04T09:31:42Z</time>
      </trkpt>
      <trkpt lat="44.1781" lon="5.33176">
        <ele>587.24</ele>
        <time>2021-11-04T09:31:29Z</time>
      </trkpt>
      <trkpt lat="44.17808" lon="5.33155">
        <ele>586.46</ele>
        <time>2021-11-04T09:31:10Z</time>
      </trkpt>
      <trkpt lat="44.1781" lon="5.33138">
        <ele>586.25</ele>
        <time>2021-11-04T09:30:57Z</time>
      </trkpt>
      <trkpt lat="44.17816" lon="5.33119">
        <ele>586.32</ele>
        <time>2021-11-04T09:30:39Z</time>
      </trkpt>
      <trkpt lat="44.1782" lon="5.33103">
        <ele>586.54</ele>
        <time>2021-11-04T09:30:27Z</time>
      </trkpt>
      <trkpt lat="44.17822" lon="5.33084">
        <ele>586.89</ele>
        <time>2021-11-04T09:30:15Z</time>
      </trkpt>
      <trkpt lat="44.17826" lon="5.33066">
        <ele>587.39</ele>
        <time>2021-11-04T09:30:04Z</time>
      </trkpt>
      <trkpt lat="44.17828" lon="5.3305">
        <ele>588.85</ele>
        <time>2021-11-04T09:29:50Z</time>
      </trkpt>
      <trkpt lat="44.1783" lon="5.33033">
        <ele>590.15</ele>
        <time>2021-11-04T09:29:39Z</time>
      </trkpt>
      <trkpt lat="44.17834" lon="5.33016">
        <ele>592.16</ele>
        <time>2021-11-04T09:29:25Z</time>
      </trkpt>
      <trkpt lat="44.17834" lon="5.32999">
        <ele>593.92</ele>
        <time>2021-11-04T09:29:13Z</time>
      </trkpt>
      <trkpt lat="44.17832" lon="5.32984">
        <ele>595.4</ele>
        <time>2021-11-04T09:29:01Z</time>
      </trkpt>
      <trkpt lat="44.17831" lon="5.32969">
        <ele>595.31</ele>
        <time>2021-11-04T09:28:47Z</time>
      </trkpt>
      <trkpt lat="44.17831" lon="5.32953">
        <ele>595.42</ele>
        <time>2021-11-04T09:28:32Z</time>
      </trkpt>
      <trkpt lat="44.17833" lon="5.32939">
        <ele>595.03</ele>
        <time>2021-11-04T09:28:11Z</time>
      </trkpt>
      <trkpt lat="44.17835" lon="5.32922">
        <ele>594.66</ele>
        <time>2021-11-04T09:28:00Z</time>
      </trkpt>
      <trkpt lat="44.17837" lon="5.32904">
        <ele>594.46</ele>
        <time>2021-11-04T09:27:49Z</time>
      </trkpt>
      <trkpt lat="44.17842" lon="5.3289">
        <ele>594.36</ele>
        <time>2021-11-04T09:27:40Z</time>
      </trkpt>
      <trkpt lat="44.17845" lon="5.32877">
        <ele>594.47</ele>
        <time>2021-11-04T09:27:31Z</time>
      </trkpt>
      <trkpt lat="44.1785" lon="5.32865">
        <ele>595.09</ele>
        <time>2021-11-04T09:27:22Z</time>
      </trkpt>
      <trkpt lat="44.17857" lon="5.32855">
        <ele>595.16</ele>
        <time>2021-11-04T09:27:13Z</time>
      </trkpt>
      <trkpt lat="44.17865" lon="5.32846">
        <ele>595.91</ele>
        <time>2021-11-04T09:27:04Z</time>
      </trkpt>
      <trkpt lat="44.17872" lon="5.32836">
        <ele>596.69</ele>
        <time>2021-11-04T09:26:55Z</time>
      </trkpt>
      <trkpt lat="44.17878" lon="5.32825">
        <ele>597.04</ele>
        <time>2021-11-04T09:26:46Z</time>
      </trkpt>
      <trkpt lat="44.17886" lon="5.32812">
        <ele>597.89</ele>
        <time>2021-11-04T09:26:37Z</time>
      </trkpt>
      <trkpt lat="44.17895" lon="5.328">
        <ele>598.33</ele>
        <time>2021-11-04T09:26:27Z</time>
      </trkpt>
      <trkpt lat="44.17903" lon="5.32789">
        <ele>599</ele>
        <time>2021-11-04T09:26:17Z</time>
      </trkpt>
      <trkpt lat="44.17913" lon="5.3278">
        <ele>599.63</ele>
        <time>2021-11-04T09:26:07Z</time>
      </trkpt>
      <trkpt lat="44.17924" lon="5.32767">
        <ele>599.83</ele>
        <time>2021-11-04T09:25:56Z</time>
      </trkpt>
      <trkpt lat="44.17933" lon="5.32759">
        <ele>600.56</ele>
        <time>2021-11-04T09:25:47Z</time>
      </trkpt>
      <trkpt lat="44.17944" lon="5.32749">
        <ele>601.63</ele>
        <time>2021-11-04T09:25:37Z</time>
      </trkpt>
      <trkpt lat="44.17952" lon="5.32738">
        <ele>602.82</ele>
        <time>2021-11-04T09:25:26Z</time>
      </trkpt>
      <trkpt lat="44.17964" lon="5.32729">
        <ele>604.13</ele>
        <time>2021-11-04T09:25:15Z</time>
      </trkpt>
      <trkpt lat="44.17976" lon="5.32726">
        <ele>605.66</ele>
        <time>2021-11-04T09:25:05Z</time>
      </trkpt>
      <trkpt lat="44.17989" lon="5.32726">
        <ele>607.02</ele>
        <time>2021-11-04T09:24:53Z</time>
      </trkpt>
      <trkpt lat="44.18002" lon="5.32723">
        <ele>608.47</ele>
        <time>2021-11-04T09:24:42Z</time>
      </trkpt>
      <trkpt lat="44.18014" lon="5.32721">
        <ele>609.38</ele>
        <time>2021-11-04T09:24:31Z</time>
      </trkpt>
      <trkpt lat="44.18027" lon="5.32718">
        <ele>610.84</ele>
        <time>2021-11-04T09:24:20Z</time>
      </trkpt>
      <trkpt lat="44.18038" lon="5.32709">
        <ele>612.48</ele>
        <time>2021-11-04T09:24:10Z</time>
      </trkpt>
      <trkpt lat="44.18049" lon="5.32702">
        <ele>613.66</ele>
        <time>2021-11-04T09:23:59Z</time>
      </trkpt>
      <trkpt lat="44.18058" lon="5.32692">
        <ele>615.23</ele>
        <time>2021-11-04T09:23:48Z</time>
      </trkpt>
      <trkpt lat="44.1807" lon="5.32685">
        <ele>616.79</ele>
        <time>2021-11-04T09:23:38Z</time>
      </trkpt>
      <trkpt lat="44.18081" lon="5.32678">
        <ele>618.93</ele>
        <time>2021-11-04T09:23:26Z</time>
      </trkpt>
      <trkpt lat="44.18096" lon="5.32673">
        <ele>620.36</ele>
        <time>2021-11-04T09:23:15Z</time>
      </trkpt>
      <trkpt lat="44.18111" lon="5.32667">
        <ele>622.04</ele>
        <time>2021-11-04T09:23:04Z</time>
      </trkpt>
      <trkpt lat="44.18124" lon="5.32659">
        <ele>624.23</ele>
        <time>2021-11-04T09:22:52Z</time>
      </trkpt>
      <trkpt lat="44.18136" lon="5.32653">
        <ele>626.71</ele>
        <time>2021-11-04T09:22:40Z</time>
      </trkpt>
      <trkpt lat="44.18146" lon="5.32649">
        <ele>628.54</ele>
        <time>2021-11-04T09:22:27Z</time>
      </trkpt>
      <trkpt lat="44.18158" lon="5.32648">
        <ele>630.91</ele>
        <time>2021-11-04T09:22:13Z</time>
      </trkpt>
      <trkpt lat="44.18168" lon="5.32654">
        <ele>632.75</ele>
        <time>2021-11-04T09:22:00Z</time>
      </trkpt>
      <trkpt lat="44.18178" lon="5.32659">
        <ele>634.21</ele>
        <time>2021-11-04T09:21:47Z</time>
      </trkpt>
      <trkpt lat="44.18188" lon="5.32665">
        <ele>636.08</ele>
        <time>2021-11-04T09:21:34Z</time>
      </trkpt>
      <trkpt lat="44.18193" lon="5.32675">
        <ele>637.65</ele>
        <time>2021-11-04T09:21:23Z</time>
      </trkpt>
      <trkpt lat="44.18198" lon="5.32687">
        <ele>639.28</ele>
        <time>2021-11-04T09:21:13Z</time>
      </trkpt>
      <trkpt lat="44.18201" lon="5.327">
        <ele>640.43</ele>
        <time>2021-11-04T09:21:03Z</time>
      </trkpt>
      <trkpt lat="44.18203" lon="5.32713">
        <ele>641.85</ele>
        <time>2021-11-04T09:20:54Z</time>
      </trkpt>
      <trkpt lat="44.18209" lon="5.32724">
        <ele>642.74</ele>
        <time>2021-11-04T09:20:45Z</time>
      </trkpt>
      <trkpt lat="44.18219" lon="5.32726">
        <ele>643.29</ele>
        <time>2021-11-04T09:20:35Z</time>
      </trkpt>
      <trkpt lat="44.18224" lon="5.32724">
        <ele>642.51</ele>
        <time>2021-11-04T09:20:24Z</time>
      </trkpt>
      <trkpt lat="44.18227" lon="5.32723">
        <ele>642.24</ele>
        <time>2021-11-04T09:18:29Z</time>
      </trkpt>
      <trkpt lat="44.18231" lon="5.32716">
        <ele>641.66</ele>
        <time>2021-11-04T09:10:49Z</time>
      </trkpt>
      <trkpt lat="44.18236" lon="5.32706">
        <ele>640.7</ele>
        <time>2021-11-04T09:10:34Z</time>
      </trkpt>
      <trkpt lat="44.18239" lon="5.3269">
        <ele>639.28</ele>
        <time>2021-11-04T09:10:25Z</time>
      </trkpt>
      <trkpt lat="44.18243" lon="5.32676">
        <ele>638.04</ele>
        <time>2021-11-04T09:10:16Z</time>
      </trkpt>
      <trkpt lat="44.18247" lon="5.32662">
        <ele>637</ele>
        <time>2021-11-04T09:10:06Z</time>
      </trkpt>
      <trkpt lat="44.18251" lon="5.32644">
        <ele>635.7</ele>
        <time>2021-11-04T09:09:53Z</time>
      </trkpt>
      <trkpt lat="44.18249" lon="5.32624">
        <ele>634.59</ele>
        <time>2021-11-04T09:09:41Z</time>
      </trkpt>
      <trkpt lat="44.18245" lon="5.32611">
        <ele>633.64</ele>
        <time>2021-11-04T09:09:29Z</time>
      </trkpt>
      <trkpt lat="44.18237" lon="5.32595">
        <ele>632.46</ele>
        <time>2021-11-04T09:09:16Z</time>
      </trkpt>
      <trkpt lat="44.18231" lon="5.32575">
        <ele>631.16</ele>
        <time>2021-11-04T09:09:02Z</time>
      </trkpt>
      <trkpt lat="44.18224" lon="5.32558">
        <ele>629.86</ele>
        <time>2021-11-04T09:08:49Z</time>
      </trkpt>
      <trkpt lat="44.18222" lon="5.32553">
        <ele>628.66</ele>
        <time>2021-11-04T09:08:36Z</time>
      </trkpt>
      <trkpt lat="44.18216" lon="5.32542">
        <ele>627.33</ele>
        <time>2021-11-04T09:08:24Z</time>
      </trkpt>
      <trkpt lat="44.18222" lon="5.32532">
        <ele>625.9</ele>
        <time>2021-11-04T09:08:10Z</time>
      </trkpt>
      <trkpt lat="44.18234" lon="5.3253">
        <ele>625.39</ele>
        <time>2021-11-04T09:07:59Z</time>
      </trkpt>
      <trkpt lat="44.18247" lon="5.3253">
        <ele>624.7</ele>
        <time>2021-11-04T09:07:46Z</time>
      </trkpt>
      <trkpt lat="44.18259" lon="5.32529">
        <ele>624.09</ele>
        <time>2021-11-04T09:07:32Z</time>
      </trkpt>
      <trkpt lat="44.1827" lon="5.32527">
        <ele>623.2</ele>
        <time>2021-11-04T09:07:20Z</time>
      </trkpt>
      <trkpt lat="44.18283" lon="5.32525">
        <ele>622.36</ele>
        <time>2021-11-04T09:07:08Z</time>
      </trkpt>
      <trkpt lat="44.18297" lon="5.32519">
        <ele>621.35</ele>
        <time>2021-11-04T09:06:52Z</time>
      </trkpt>
      <trkpt lat="44.18307" lon="5.32506">
        <ele>620.51</ele>
        <time>2021-11-04T09:06:39Z</time>
      </trkpt>
      <trkpt lat="44.18316" lon="5.32499">
        <ele>619.23</ele>
        <time>2021-11-04T09:06:29Z</time>
      </trkpt>
      <trkpt lat="44.18326" lon="5.32501">
        <ele>618.1</ele>
        <time>2021-11-04T09:06:17Z</time>
      </trkpt>
      <trkpt lat="44.18338" lon="5.32507">
        <ele>617.12</ele>
        <time>2021-11-04T09:06:06Z</time>
      </trkpt>
      <trkpt lat="44.1835" lon="5.32508">
        <ele>615.7</ele>
        <time>2021-11-04T09:05:53Z</time>
      </trkpt>
      <trkpt lat="44.18359" lon="5.32507">
        <ele>614.49</ele>
        <time>2021-11-04T09:05:41Z</time>
      </trkpt>
      <trkpt lat="44.18369" lon="5.32505">
        <ele>613.62</ele>
        <time>2021-11-04T09:05:29Z</time>
      </trkpt>
      <trkpt lat="44.18379" lon="5.32505">
        <ele>612.16</ele>
        <time>2021-11-04T09:05:17Z</time>
      </trkpt>
      <trkpt lat="44.18389" lon="5.32508">
        <ele>610.79</ele>
        <time>2021-11-04T09:05:04Z</time>
      </trkpt>
      <trkpt lat="44.18398" lon="5.32508">
        <ele>609.31</ele>
        <time>2021-11-04T09:04:54Z</time>
      </trkpt>
      <trkpt lat="44.18406" lon="5.32502">
        <ele>608.53</ele>
        <time>2021-11-04T09:04:42Z</time>
      </trkpt>
      <trkpt lat="44.18405" lon="5.32486">
        <ele>607.27</ele>
        <time>2021-11-04T09:04:27Z</time>
      </trkpt>
      <trkpt lat="44.18397" lon="5.3247">
        <ele>605.6</ele>
        <time>2021-11-04T09:04:13Z</time>
      </trkpt>
      <trkpt lat="44.18387" lon="5.32454">
        <ele>604.43</ele>
        <time>2021-11-04T09:04:01Z</time>
      </trkpt>
      <trkpt lat="44.18379" lon="5.32437">
        <ele>602.62</ele>
        <time>2021-11-04T09:03:48Z</time>
      </trkpt>
      <trkpt lat="44.18371" lon="5.32421">
        <ele>600.78</ele>
        <time>2021-11-04T09:03:33Z</time>
      </trkpt>
      <trkpt lat="44.18369" lon="5.32402">
        <ele>598.32</ele>
        <time>2021-11-04T09:03:16Z</time>
      </trkpt>
      <trkpt lat="44.18376" lon="5.32388">
        <ele>595.97</ele>
        <time>2021-11-04T09:03:00Z</time>
      </trkpt>
      <trkpt lat="44.18387" lon="5.3238">
        <ele>594.37</ele>
        <time>2021-11-04T09:02:48Z</time>
      </trkpt>
      <trkpt lat="44.18399" lon="5.32376">
        <ele>592.7</ele>
        <time>2021-11-04T09:02:35Z</time>
      </trkpt>
      <trkpt lat="44.18409" lon="5.3238">
        <ele>592.05</ele>
        <time>2021-11-04T09:02:25Z</time>
      </trkpt>
      <trkpt lat="44.18419" lon="5.32391">
        <ele>591.34</ele>
        <time>2021-11-04T09:02:14Z</time>
      </trkpt>
      <trkpt lat="44.18427" lon="5.32405">
        <ele>589.76</ele>
        <time>2021-11-04T09:02:02Z</time>
      </trkpt>
      <trkpt lat="44.18433" lon="5.32415">
        <ele>588.7</ele>
        <time>2021-11-04T09:01:50Z</time>
      </trkpt>
      <trkpt lat="44.1844" lon="5.32422">
        <ele>587.63</ele>
        <time>2021-11-04T09:01:40Z</time>
      </trkpt>
      <trkpt lat="44.1845" lon="5.32426">
        <ele>586.5</ele>
        <time>2021-11-04T09:01:28Z</time>
      </trkpt>
      <trkpt lat="44.1846" lon="5.32428">
        <ele>585.05</ele>
        <time>2021-11-04T09:01:17Z</time>
      </trkpt>
      <trkpt lat="44.18471" lon="5.32429">
        <ele>584</ele>
        <time>2021-11-04T09:01:06Z</time>
      </trkpt>
      <trkpt lat="44.18481" lon="5.32428">
        <ele>583.3</ele>
        <time>2021-11-04T09:00:55Z</time>
      </trkpt>
      <trkpt lat="44.1849" lon="5.32426">
        <ele>582.84</ele>
        <time>2021-11-04T09:00:45Z</time>
      </trkpt>
      <trkpt lat="44.18503" lon="5.32425">
        <ele>583.09</ele>
        <time>2021-11-04T09:00:34Z</time>
      </trkpt>
      <trkpt lat="44.18516" lon="5.3242">
        <ele>583.84</ele>
        <time>2021-11-04T09:00:23Z</time>
      </trkpt>
      <trkpt lat="44.18527" lon="5.32412">
        <ele>584.98</ele>
        <time>2021-11-04T09:00:12Z</time>
      </trkpt>
      <trkpt lat="44.18539" lon="5.3241">
        <ele>585.11</ele>
        <time>2021-11-04T09:00:00Z</time>
      </trkpt>
      <trkpt lat="44.18552" lon="5.3242">
        <ele>583.71</ele>
        <time>2021-11-04T08:59:47Z</time>
      </trkpt>
      <trkpt lat="44.18562" lon="5.32428">
        <ele>581.98</ele>
        <time>2021-11-04T08:59:34Z</time>
      </trkpt>
      <trkpt lat="44.1857" lon="5.3243">
        <ele>580.74</ele>
        <time>2021-11-04T08:59:20Z</time>
      </trkpt>
      <trkpt lat="44.1858" lon="5.32436">
        <ele>578.96</ele>
        <time>2021-11-04T08:59:05Z</time>
      </trkpt>
      <trkpt lat="44.18591" lon="5.32442">
        <ele>577.74</ele>
        <time>2021-11-04T08:58:54Z</time>
      </trkpt>
      <trkpt lat="44.18601" lon="5.32448">
        <ele>576.59</ele>
        <time>2021-11-04T08:58:43Z</time>
      </trkpt>
      <trkpt lat="44.18612" lon="5.32454">
        <ele>575.38</ele>
        <time>2021-11-04T08:58:30Z</time>
      </trkpt>
      <trkpt lat="44.18623" lon="5.32462">
        <ele>573.77</ele>
        <time>2021-11-04T08:58:15Z</time>
      </trkpt>
      <trkpt lat="44.18634" lon="5.32463">
        <ele>572.18</ele>
        <time>2021-11-04T08:58:03Z</time>
      </trkpt>
      <trkpt lat="44.18644" lon="5.32453">
        <ele>570.92</ele>
        <time>2021-11-04T08:57:53Z</time>
      </trkpt>
      <trkpt lat="44.18651" lon="5.32434">
        <ele>569.68</ele>
        <time>2021-11-04T08:57:42Z</time>
      </trkpt>
      <trkpt lat="44.18661" lon="5.32415">
        <ele>568.34</ele>
        <time>2021-11-04T08:57:30Z</time>
      </trkpt>
      <trkpt lat="44.18668" lon="5.32394">
        <ele>567.19</ele>
        <time>2021-11-04T08:57:16Z</time>
      </trkpt>
      <trkpt lat="44.18666" lon="5.32367">
        <ele>565.56</ele>
        <time>2021-11-04T08:56:58Z</time>
      </trkpt>
      <trkpt lat="44.18669" lon="5.32342">
        <ele>564</ele>
        <time>2021-11-04T08:56:41Z</time>
      </trkpt>
      <trkpt lat="44.18672" lon="5.32321">
        <ele>562.04</ele>
        <time>2021-11-04T08:56:22Z</time>
      </trkpt>
      <trkpt lat="44.1867" lon="5.32307">
        <ele>559.97</ele>
        <time>2021-11-04T08:56:04Z</time>
      </trkpt>
      <trkpt lat="44.18666" lon="5.32296">
        <ele>558.93</ele>
        <time>2021-11-04T08:55:51Z</time>
      </trkpt>
      <trkpt lat="44.18663" lon="5.32281">
        <ele>557.96</ele>
        <time>2021-11-04T08:55:38Z</time>
      </trkpt>
      <trkpt lat="44.18658" lon="5.3227">
        <ele>556.5</ele>
        <time>2021-11-04T08:55:25Z</time>
      </trkpt>
      <trkpt lat="44.18649" lon="5.32257">
        <ele>555.29</ele>
        <time>2021-11-04T08:55:13Z</time>
      </trkpt>
      <trkpt lat="44.18641" lon="5.32245">
        <ele>553.63</ele>
        <time>2021-11-04T08:54:57Z</time>
      </trkpt>
      <trkpt lat="44.18635" lon="5.3223">
        <ele>552.68</ele>
        <time>2021-11-04T08:54:45Z</time>
      </trkpt>
      <trkpt lat="44.18627" lon="5.32216">
        <ele>551.34</ele>
        <time>2021-11-04T08:54:30Z</time>
      </trkpt>
      <trkpt lat="44.18619" lon="5.322">
        <ele>549.84</ele>
        <time>2021-11-04T08:54:18Z</time>
      </trkpt>
      <trkpt lat="44.18614" lon="5.32183">
        <ele>548.41</ele>
        <time>2021-11-04T08:54:05Z</time>
      </trkpt>
      <trkpt lat="44.18608" lon="5.32168">
        <ele>546.91</ele>
        <time>2021-11-04T08:53:53Z</time>
      </trkpt>
      <trkpt lat="44.18602" lon="5.32155">
        <ele>545.62</ele>
        <time>2021-11-04T08:53:40Z</time>
      </trkpt>
      <trkpt lat="44.18594" lon="5.32144">
        <ele>544.43</ele>
        <time>2021-11-04T08:53:26Z</time>
      </trkpt>
      <trkpt lat="44.18583" lon="5.32146">
        <ele>542.84</ele>
        <time>2021-11-04T08:53:13Z</time>
      </trkpt>
      <trkpt lat="44.18573" lon="5.32153">
        <ele>541.59</ele>
        <time>2021-11-04T08:52:58Z</time>
      </trkpt>
      <trkpt lat="44.18565" lon="5.32165">
        <ele>540.74</ele>
        <time>2021-11-04T08:52:41Z</time>
      </trkpt>
      <trkpt lat="44.18556" lon="5.32164">
        <ele>540.41</ele>
        <time>2021-11-04T08:51:21Z</time>
      </trkpt>
      <trkpt lat="44.18551" lon="5.32169">
        <ele>540.61</ele>
        <time>2021-11-04T08:48:36Z</time>
      </trkpt>
      <trkpt lat="44.18543" lon="5.32179">
        <ele>539.54</ele>
        <time>2021-11-04T08:48:24Z</time>
      </trkpt>
      <trkpt lat="44.1854" lon="5.32176">
        <ele>537.91</ele>
        <time>2021-11-04T08:48:10Z</time>
      </trkpt>
      <trkpt lat="44.18544" lon="5.32163">
        <ele>536.26</ele>
        <time>2021-11-04T08:47:58Z</time>
      </trkpt>
      <trkpt lat="44.18549" lon="5.32154">
        <ele>534.72</ele>
        <time>2021-11-04T08:47:46Z</time>
      </trkpt>
      <trkpt lat="44.18557" lon="5.32139">
        <ele>533.2</ele>
        <time>2021-11-04T08:47:33Z</time>
      </trkpt>
      <trkpt lat="44.18567" lon="5.32127">
        <ele>531.82</ele>
        <time>2021-11-04T08:47:20Z</time>
      </trkpt>
      <trkpt lat="44.18577" lon="5.32115">
        <ele>530.93</ele>
        <time>2021-11-04T08:47:08Z</time>
      </trkpt>
      <trkpt lat="44.18582" lon="5.32101">
        <ele>529.49</ele>
        <time>2021-11-04T08:46:56Z</time>
      </trkpt>
      <trkpt lat="44.18588" lon="5.32093">
        <ele>528.07</ele>
        <time>2021-11-04T08:46:45Z</time>
      </trkpt>
      <trkpt lat="44.18595" lon="5.321">
        <ele>526.52</ele>
        <time>2021-11-04T08:46:32Z</time>
      </trkpt>
      <trkpt lat="44.18602" lon="5.32111">
        <ele>525.73</ele>
        <time>2021-11-04T08:46:21Z</time>
      </trkpt>
      <trkpt lat="44.18609" lon="5.32124">
        <ele>524.43</ele>
        <time>2021-11-04T08:46:11Z</time>
      </trkpt>
      <trkpt lat="44.18618" lon="5.32133">
        <ele>522.84</ele>
        <time>2021-11-04T08:45:59Z</time>
      </trkpt>
      <trkpt lat="44.18625" lon="5.32146">
        <ele>521.86</ele>
        <time>2021-11-04T08:45:49Z</time>
      </trkpt>
      <trkpt lat="44.18632" lon="5.32154">
        <ele>520.63</ele>
        <time>2021-11-04T08:45:38Z</time>
      </trkpt>
      <trkpt lat="44.18641" lon="5.32165">
        <ele>519.95</ele>
        <time>2021-11-04T08:45:28Z</time>
      </trkpt>
      <trkpt lat="44.18651" lon="5.32175">
        <ele>519.16</ele>
        <time>2021-11-04T08:45:18Z</time>
      </trkpt>
      <trkpt lat="44.18663" lon="5.32179">
        <ele>517.84</ele>
        <time>2021-11-04T08:45:04Z</time>
      </trkpt>
      <trkpt lat="44.18671" lon="5.32187">
        <ele>516.5</ele>
        <time>2021-11-04T08:44:54Z</time>
      </trkpt>
      <trkpt lat="44.18682" lon="5.32203">
        <ele>515.62</ele>
        <time>2021-11-04T08:44:42Z</time>
      </trkpt>
      <trkpt lat="44.18691" lon="5.32218">
        <ele>514.12</ele>
        <time>2021-11-04T08:44:27Z</time>
      </trkpt>
      <trkpt lat="44.18701" lon="5.32229">
        <ele>512.74</ele>
        <time>2021-11-04T08:44:15Z</time>
      </trkpt>
      <trkpt lat="44.18713" lon="5.32245">
        <ele>511.11</ele>
        <time>2021-11-04T08:44:01Z</time>
      </trkpt>
      <trkpt lat="44.18723" lon="5.32261">
        <ele>509.59</ele>
        <time>2021-11-04T08:43:45Z</time>
      </trkpt>
      <trkpt lat="44.18728" lon="5.32276">
        <ele>508.14</ele>
        <time>2021-11-04T08:43:30Z</time>
      </trkpt>
      <trkpt lat="44.18734" lon="5.32291">
        <ele>506.83</ele>
        <time>2021-11-04T08:43:17Z</time>
      </trkpt>
      <trkpt lat="44.18743" lon="5.32308">
        <ele>505.29</ele>
        <time>2021-11-04T08:43:05Z</time>
      </trkpt>
      <trkpt lat="44.18751" lon="5.32318">
        <ele>503.79</ele>
        <time>2021-11-04T08:42:51Z</time>
      </trkpt>
      <trkpt lat="44.18759" lon="5.32328">
        <ele>502.53</ele>
        <time>2021-11-04T08:42:40Z</time>
      </trkpt>
      <trkpt lat="44.18766" lon="5.32338">
        <ele>501.47</ele>
        <time>2021-11-04T08:42:30Z</time>
      </trkpt>
      <trkpt lat="44.18773" lon="5.32348">
        <ele>500.49</ele>
        <time>2021-11-04T08:42:20Z</time>
      </trkpt>
      <trkpt lat="44.18782" lon="5.32357">
        <ele>500.02</ele>
        <time>2021-11-04T08:42:09Z</time>
      </trkpt>
      <trkpt lat="44.1879" lon="5.32367">
        <ele>499.88</ele>
        <time>2021-11-04T08:42:00Z</time>
      </trkpt>
      <trkpt lat="44.18796" lon="5.32377">
        <ele>500</ele>
        <time>2021-11-04T08:41:51Z</time>
      </trkpt>
      <trkpt lat="44.18803" lon="5.32387">
        <ele>500.12</ele>
        <time>2021-11-04T08:41:42Z</time>
      </trkpt>
      <trkpt lat="44.18808" lon="5.32398">
        <ele>499.79</ele>
        <time>2021-11-04T08:41:34Z</time>
      </trkpt>
      <trkpt lat="44.18814" lon="5.32408">
        <ele>499.75</ele>
        <time>2021-11-04T08:41:26Z</time>
      </trkpt>
      <trkpt lat="44.18819" lon="5.32419">
        <ele>499.33</ele>
        <time>2021-11-04T08:41:18Z</time>
      </trkpt>
      <trkpt lat="44.18823" lon="5.32431">
        <ele>499.36</ele>
        <time>2021-11-04T08:41:10Z</time>
      </trkpt>
      <trkpt lat="44.18827" lon="5.32443">
        <ele>499.86</ele>
        <time>2021-11-04T08:41:02Z</time>
      </trkpt>
      <trkpt lat="44.1883" lon="5.32457">
        <ele>500.05</ele>
        <time>2021-11-04T08:40:53Z</time>
      </trkpt>
      <trkpt lat="44.18832" lon="5.32468">
        <ele>499.58</ele>
        <time>2021-11-04T08:40:44Z</time>
      </trkpt>
      <trkpt lat="44.18835" lon="5.32481">
        <ele>499.43</ele>
        <time>2021-11-04T08:40:35Z</time>
      </trkpt>
      <trkpt lat="44.18837" lon="5.32494">
        <ele>499.03</ele>
        <time>2021-11-04T08:40:26Z</time>
      </trkpt>
      <trkpt lat="44.1884" lon="5.32508">
        <ele>499.08</ele>
        <time>2021-11-04T08:40:17Z</time>
      </trkpt>
      <trkpt lat="44.18843" lon="5.32521">
        <ele>498.61</ele>
        <time>2021-11-04T08:40:07Z</time>
      </trkpt>
      <trkpt lat="44.18846" lon="5.32533">
        <ele>497.94</ele>
        <time>2021-11-04T08:39:58Z</time>
      </trkpt>
      <trkpt lat="44.18849" lon="5.32546">
        <ele>498.79</ele>
        <time>2021-11-04T08:39:49Z</time>
      </trkpt>
      <trkpt lat="44.18853" lon="5.32559">
        <ele>499.27</ele>
        <time>2021-11-04T08:39:40Z</time>
      </trkpt>
      <trkpt lat="44.18857" lon="5.32571">
        <ele>499.28</ele>
        <time>2021-11-04T08:39:32Z</time>
      </trkpt>
      <trkpt lat="44.18859" lon="5.32584">
        <ele>500.23</ele>
        <time>2021-11-04T08:39:21Z</time>
      </trkpt>
      <trkpt lat="44.18861" lon="5.32596">
        <ele>500.55</ele>
        <time>2021-11-04T08:39:07Z</time>
      </trkpt>
      <trkpt lat="44.18858" lon="5.326">
        <ele>500.21</ele>
        <time>2021-11-04T08:35:57Z</time>
      </trkpt>
      <trkpt lat="44.1886" lon="5.32612">
        <ele>500.11</ele>
        <time>2021-11-04T08:35:26Z</time>
      </trkpt>
      <trkpt lat="44.18866" lon="5.32617">
        <ele>497.62</ele>
        <time>2021-11-04T08:35:07Z</time>
      </trkpt>
      <trkpt lat="44.18873" lon="5.32611">
        <ele>494.05</ele>
        <time>2021-11-04T08:34:51Z</time>
      </trkpt>
      <trkpt lat="44.18885" lon="5.32611">
        <ele>491.41</ele>
        <time>2021-11-04T08:34:36Z</time>
      </trkpt>
      <trkpt lat="44.18889" lon="5.32598">
        <ele>490.57</ele>
        <time>2021-11-04T08:34:26Z</time>
      </trkpt>
      <trkpt lat="44.18893" lon="5.32586">
        <ele>490.05</ele>
        <time>2021-11-04T08:34:16Z</time>
      </trkpt>
      <trkpt lat="44.18894" lon="5.32572">
        <ele>490</ele>
        <time>2021-11-04T08:34:07Z</time>
      </trkpt>
      <trkpt lat="44.18899" lon="5.32561">
        <ele>490.11</ele>
        <time>2021-11-04T08:33:58Z</time>
      </trkpt>
      <trkpt lat="44.18907" lon="5.32553">
        <ele>490.08</ele>
        <time>2021-11-04T08:33:48Z</time>
      </trkpt>
      <trkpt lat="44.18917" lon="5.32547">
        <ele>489.67</ele>
        <time>2021-11-04T08:33:38Z</time>
      </trkpt>
      <trkpt lat="44.18927" lon="5.32542">
        <ele>489.82</ele>
        <time>2021-11-04T08:33:28Z</time>
      </trkpt>
      <trkpt lat="44.18938" lon="5.32537">
        <ele>490.2</ele>
        <time>2021-11-04T08:33:19Z</time>
      </trkpt>
      <trkpt lat="44.18948" lon="5.32532">
        <ele>490.65</ele>
        <time>2021-11-04T08:33:09Z</time>
      </trkpt>
      <trkpt lat="44.18956" lon="5.32523">
        <ele>490.15</ele>
        <time>2021-11-04T08:32:58Z</time>
      </trkpt>
      <trkpt lat="44.18962" lon="5.32512">
        <ele>489.98</ele>
        <time>2021-11-04T08:32:47Z</time>
      </trkpt>
      <trkpt lat="44.18969" lon="5.325">
        <ele>489.87</ele>
        <time>2021-11-04T08:32:36Z</time>
      </trkpt>
      <trkpt lat="44.18975" lon="5.32488">
        <ele>488.89</ele>
        <time>2021-11-04T08:32:26Z</time>
      </trkpt>
      <trkpt lat="44.18982" lon="5.32478">
        <ele>488.38</ele>
        <time>2021-11-04T08:32:15Z</time>
      </trkpt>
      <trkpt lat="44.18991" lon="5.32472">
        <ele>486.69</ele>
        <time>2021-11-04T08:32:01Z</time>
      </trkpt>
      <trkpt lat="44.18997" lon="5.32482">
        <ele>486.99</ele>
        <time>2021-11-04T08:31:50Z</time>
      </trkpt>
      <trkpt lat="44.19004" lon="5.32494">
        <ele>487.12</ele>
        <time>2021-11-04T08:31:40Z</time>
      </trkpt>
      <trkpt lat="44.1901" lon="5.32508">
        <ele>487.25</ele>
        <time>2021-11-04T08:31:28Z</time>
      </trkpt>
      <trkpt lat="44.19016" lon="5.32518">
        <ele>486.92</ele>
        <time>2021-11-04T08:31:18Z</time>
      </trkpt>
      <trkpt lat="44.19018" lon="5.32532">
        <ele>487.8</ele>
        <time>2021-11-04T08:31:08Z</time>
      </trkpt>
      <trkpt lat="44.19018" lon="5.32546">
        <ele>488.18</ele>
        <time>2021-11-04T08:30:59Z</time>
      </trkpt>
      <trkpt lat="44.19021" lon="5.32559">
        <ele>489</ele>
        <time>2021-11-04T08:30:50Z</time>
      </trkpt>
      <trkpt lat="44.19026" lon="5.32572">
        <ele>488.8</ele>
        <time>2021-11-04T08:30:40Z</time>
      </trkpt>
      <trkpt lat="44.19028" lon="5.32584">
        <ele>488.45</ele>
        <time>2021-11-04T08:30:30Z</time>
      </trkpt>
      <trkpt lat="44.19024" lon="5.32598">
        <ele>486.61</ele>
        <time>2021-11-04T08:30:17Z</time>
      </trkpt>
      <trkpt lat="44.19019" lon="5.32612">
        <ele>484.75</ele>
        <time>2021-11-04T08:30:05Z</time>
      </trkpt>
      <trkpt lat="44.19017" lon="5.32627">
        <ele>483.03</ele>
        <time>2021-11-04T08:29:53Z</time>
      </trkpt>
      <trkpt lat="44.19015" lon="5.32641">
        <ele>481.07</ele>
        <time>2021-11-04T08:29:40Z</time>
      </trkpt>
      <trkpt lat="44.1901" lon="5.32654">
        <ele>480.01</ele>
        <time>2021-11-04T08:29:31Z</time>
      </trkpt>
      <trkpt lat="44.19007" lon="5.32668">
        <ele>479.04</ele>
        <time>2021-11-04T08:29:22Z</time>
      </trkpt>
      <trkpt lat="44.19006" lon="5.32683">
        <ele>477.97</ele>
        <time>2021-11-04T08:29:12Z</time>
      </trkpt>
      <trkpt lat="44.19006" lon="5.32696">
        <ele>477.07</ele>
        <time>2021-11-04T08:29:02Z</time>
      </trkpt>
      <trkpt lat="44.19011" lon="5.32705">
        <ele>475.25</ele>
        <time>2021-11-04T08:27:49Z</time>
      </trkpt>
      <trkpt lat="44.1902" lon="5.32708">
        <ele>474.73</ele>
        <time>2021-11-04T08:27:38Z</time>
      </trkpt>
      <trkpt lat="44.19029" lon="5.32715">
        <ele>474.01</ele>
        <time>2021-11-04T08:27:28Z</time>
      </trkpt>
      <trkpt lat="44.19037" lon="5.32723">
        <ele>473.47</ele>
        <time>2021-11-04T08:27:19Z</time>
      </trkpt>
      <trkpt lat="44.19046" lon="5.3273">
        <ele>472.75</ele>
        <time>2021-11-04T08:27:10Z</time>
      </trkpt>
      <trkpt lat="44.19054" lon="5.32737">
        <ele>472.16</ele>
        <time>2021-11-04T08:27:00Z</time>
      </trkpt>
      <trkpt lat="44.19062" lon="5.32745">
        <ele>471.83</ele>
        <time>2021-11-04T08:26:50Z</time>
      </trkpt>
      <trkpt lat="44.19071" lon="5.32751">
        <ele>471.19</ele>
        <time>2021-11-04T08:26:32Z</time>
      </trkpt>
      <trkpt lat="44.1908" lon="5.32758">
        <ele>470.3</ele>
        <time>2021-11-04T08:26:22Z</time>
      </trkpt>
      <trkpt lat="44.19089" lon="5.32765">
        <ele>469.7</ele>
        <time>2021-11-04T08:26:12Z</time>
      </trkpt>
      <trkpt lat="44.19099" lon="5.32771">
        <ele>469.03</ele>
        <time>2021-11-04T08:26:02Z</time>
      </trkpt>
      <trkpt lat="44.19107" lon="5.32778">
        <ele>468.33</ele>
        <time>2021-11-04T08:25:52Z</time>
      </trkpt>
      <trkpt lat="44.19116" lon="5.32785">
        <ele>467.59</ele>
        <time>2021-11-04T08:25:42Z</time>
      </trkpt>
      <trkpt lat="44.19122" lon="5.32795">
        <ele>466.99</ele>
        <time>2021-11-04T08:25:32Z</time>
      </trkpt>
      <trkpt lat="44.19129" lon="5.32806">
        <ele>466.21</ele>
        <time>2021-11-04T08:25:22Z</time>
      </trkpt>
      <trkpt lat="44.19132" lon="5.32819">
        <ele>465.47</ele>
        <time>2021-11-04T08:25:13Z</time>
      </trkpt>
      <trkpt lat="44.19135" lon="5.32833">
        <ele>464.73</ele>
        <time>2021-11-04T08:25:03Z</time>
      </trkpt>
      <trkpt lat="44.19138" lon="5.32848">
        <ele>463.88</ele>
        <time>2021-11-04T08:24:53Z</time>
      </trkpt>
      <trkpt lat="44.19138" lon="5.32863">
        <ele>463.11</ele>
        <time>2021-11-04T08:24:42Z</time>
      </trkpt>
      <trkpt lat="44.19138" lon="5.32876">
        <ele>462.1</ele>
        <time>2021-11-04T08:24:30Z</time>
      </trkpt>
      <trkpt lat="44.1913" lon="5.32882">
        <ele>460.72</ele>
        <time>2021-11-04T08:24:21Z</time>
      </trkpt>
      <trkpt lat="44.1912" lon="5.32883">
        <ele>460.07</ele>
        <time>2021-11-04T08:24:13Z</time>
      </trkpt>
      <trkpt lat="44.19111" lon="5.32891">
        <ele>459.16</ele>
        <time>2021-11-04T08:24:04Z</time>
      </trkpt>
      <trkpt lat="44.19104" lon="5.32903">
        <ele>459.22</ele>
        <time>2021-11-04T08:23:54Z</time>
      </trkpt>
      <trkpt lat="44.19098" lon="5.32915">
        <ele>458.43</ele>
        <time>2021-11-04T08:23:44Z</time>
      </trkpt>
      <trkpt lat="44.19094" lon="5.32928">
        <ele>457.49</ele>
        <time>2021-11-04T08:23:35Z</time>
      </trkpt>
      <trkpt lat="44.19089" lon="5.32942">
        <ele>457.09</ele>
        <time>2021-11-04T08:23:26Z</time>
      </trkpt>
      <trkpt lat="44.19082" lon="5.32956">
        <ele>456.53</ele>
        <time>2021-11-04T08:23:16Z</time>
      </trkpt>
      <trkpt lat="44.19076" lon="5.32971">
        <ele>456.97</ele>
        <time>2021-11-04T08:23:07Z</time>
      </trkpt>
      <trkpt lat="44.19069" lon="5.32986">
        <ele>457.72</ele>
        <time>2021-11-04T08:22:58Z</time>
      </trkpt>
      <trkpt lat="44.19059" lon="5.32997">
        <ele>459.43</ele>
        <time>2021-11-04T08:22:48Z</time>
      </trkpt>
      <trkpt lat="44.19052" lon="5.33007">
        <ele>460.65</ele>
        <time>2021-11-04T08:22:37Z</time>
      </trkpt>
      <trkpt lat="44.19043" lon="5.33017">
        <ele>460.61</ele>
        <time>2021-11-04T08:22:25Z</time>
      </trkpt>
      <trkpt lat="44.19036" lon="5.33028">
        <ele>459.95</ele>
        <time>2021-11-04T08:22:11Z</time>
      </trkpt>
      <trkpt lat="44.19032" lon="5.33043">
        <ele>458.93</ele>
        <time>2021-11-04T08:21:59Z</time>
      </trkpt>
      <trkpt lat="44.19032" lon="5.33051">
        <ele>458.27</ele>
        <time>2021-11-04T08:21:23Z</time>
      </trkpt>
      <trkpt lat="44.19027" lon="5.33064">
        <ele>457.91</ele>
        <time>2021-11-04T08:21:03Z</time>
      </trkpt>
      <trkpt lat="44.19024" lon="5.33082">
        <ele>456.56</ele>
        <time>2021-11-04T08:20:51Z</time>
      </trkpt>
      <trkpt lat="44.1902" lon="5.33098">
        <ele>455.78</ele>
        <time>2021-11-04T08:20:39Z</time>
      </trkpt>
      <trkpt lat="44.19017" lon="5.33112">
        <ele>456.14</ele>
        <time>2021-11-04T08:20:27Z</time>
      </trkpt>
      <trkpt lat="44.19017" lon="5.33129">
        <ele>456.1</ele>
        <time>2021-11-04T08:20:16Z</time>
      </trkpt>
      <trkpt lat="44.19015" lon="5.33145">
        <ele>455.45</ele>
        <time>2021-11-04T08:20:05Z</time>
      </trkpt>
      <trkpt lat="44.19016" lon="5.33163">
        <ele>455.93</ele>
        <time>2021-11-04T08:19:44Z</time>
      </trkpt>
      <trkpt lat="44.19015" lon="5.33179">
        <ele>454.39</ele>
        <time>2021-11-04T08:19:33Z</time>
      </trkpt>
      <trkpt lat="44.19012" lon="5.33198">
        <ele>453.63</ele>
        <time>2021-11-04T08:19:21Z</time>
      </trkpt>
      <trkpt lat="44.19012" lon="5.33214">
        <ele>453.95</ele>
        <time>2021-11-04T08:19:11Z</time>
      </trkpt>
      <trkpt lat="44.19015" lon="5.33231">
        <ele>454.2</ele>
        <time>2021-11-04T08:19:02Z</time>
      </trkpt>
      <trkpt lat="44.19018" lon="5.33248">
        <ele>454.89</ele>
        <time>2021-11-04T08:18:53Z</time>
      </trkpt>
      <trkpt lat="44.19022" lon="5.33265">
        <ele>455.22</ele>
        <time>2021-11-04T08:18:45Z</time>
      </trkpt>
      <trkpt lat="44.19026" lon="5.33278">
        <ele>454.92</ele>
        <time>2021-11-04T08:18:36Z</time>
      </trkpt>
      <trkpt lat="44.19032" lon="5.33291">
        <ele>455.2</ele>
        <time>2021-11-04T08:18:29Z</time>
      </trkpt>
      <trkpt lat="44.1904" lon="5.33304">
        <ele>455.39</ele>
        <time>2021-11-04T08:18:18Z</time>
      </trkpt>
      <trkpt lat="44.19046" lon="5.33316">
        <ele>455.77</ele>
        <time>2021-11-04T08:18:08Z</time>
      </trkpt>
      <trkpt lat="44.19053" lon="5.33327">
        <ele>456.5</ele>
        <time>2021-11-04T08:18:00Z</time>
      </trkpt>
      <trkpt lat="44.19059" lon="5.33338">
        <ele>457.96</ele>
        <time>2021-11-04T08:17:50Z</time>
      </trkpt>
      <trkpt lat="44.19068" lon="5.33343">
        <ele>459.27</ele>
        <time>2021-11-04T08:17:40Z</time>
      </trkpt>
      <trkpt lat="44.19075" lon="5.33353">
        <ele>460.12</ele>
        <time>2021-11-04T08:17:31Z</time>
      </trkpt>
      <trkpt lat="44.19077" lon="5.33361">
        <ele>462.1</ele>
        <time>2021-11-04T08:16:49Z</time>
      </trkpt>
      <trkpt lat="44.19081" lon="5.33369">
        <ele>462.23</ele>
        <time>2021-11-04T08:16:21Z</time>
      </trkpt>
      <trkpt lat="44.19083" lon="5.33366">
        <ele>461.9</ele>
        <time>2021-11-04T08:14:37Z</time>
      </trkpt>
      <trkpt lat="44.19088" lon="5.33356">
        <ele>463.18</ele>
        <time>2021-11-04T08:14:24Z</time>
      </trkpt>
      <trkpt lat="44.19093" lon="5.33347">
        <ele>465.8</ele>
        <time>2021-11-04T08:14:03Z</time>
      </trkpt>
      <trkpt lat="44.19101" lon="5.33353">
        <ele>467.63</ele>
        <time>2021-11-04T08:13:49Z</time>
      </trkpt>
      <trkpt lat="44.1911" lon="5.33359">
        <ele>469.34</ele>
        <time>2021-11-04T08:13:34Z</time>
      </trkpt>
      <trkpt lat="44.19119" lon="5.33361">
        <ele>471.72</ele>
        <time>2021-11-04T08:13:21Z</time>
      </trkpt>
      <trkpt lat="44.19129" lon="5.33366">
        <ele>474.06</ele>
        <time>2021-11-04T08:13:09Z</time>
      </trkpt>
      <trkpt lat="44.19138" lon="5.33376">
        <ele>475.22</ele>
        <time>2021-11-04T08:12:58Z</time>
      </trkpt>
      <trkpt lat="44.19149" lon="5.33382">
        <ele>477.68</ele>
        <time>2021-11-04T08:12:45Z</time>
      </trkpt>
      <trkpt lat="44.19159" lon="5.33388">
        <ele>478.81</ele>
        <time>2021-11-04T08:12:30Z</time>
      </trkpt>
      <trkpt lat="44.19169" lon="5.33393">
        <ele>481.73</ele>
        <time>2021-11-04T08:12:17Z</time>
      </trkpt>
      <trkpt lat="44.19178" lon="5.33396">
        <ele>484.02</ele>
        <time>2021-11-04T08:12:05Z</time>
      </trkpt>
      <trkpt lat="44.1919" lon="5.33398">
        <ele>485.77</ele>
        <time>2021-11-04T08:11:42Z</time>
      </trkpt>
      <trkpt lat="44.192" lon="5.33399">
        <ele>488.77</ele>
        <time>2021-11-04T08:11:30Z</time>
      </trkpt>
      <trkpt lat="44.1921" lon="5.33403">
        <ele>491.38</ele>
        <time>2021-11-04T08:11:17Z</time>
      </trkpt>
      <trkpt lat="44.1922" lon="5.33408">
        <ele>493.39</ele>
        <time>2021-11-04T08:11:03Z</time>
      </trkpt>
      <trkpt lat="44.19232" lon="5.33407">
        <ele>495.86</ele>
        <time>2021-11-04T08:10:52Z</time>
      </trkpt>
      <trkpt lat="44.19244" lon="5.33411">
        <ele>498.43</ele>
        <time>2021-11-04T08:10:37Z</time>
      </trkpt>
      <trkpt lat="44.19255" lon="5.33415">
        <ele>501.23</ele>
        <time>2021-11-04T08:10:24Z</time>
      </trkpt>
      <trkpt lat="44.19265" lon="5.33424">
        <ele>503.59</ele>
        <time>2021-11-04T08:10:12Z</time>
      </trkpt>
      <trkpt lat="44.19275" lon="5.33429">
        <ele>505.37</ele>
        <time>2021-11-04T08:09:37Z</time>
      </trkpt>
      <trkpt lat="44.19287" lon="5.33434">
        <ele>507.28</ele>
        <time>2021-11-04T08:09:25Z</time>
      </trkpt>
      <trkpt lat="44.193" lon="5.33431">
        <ele>509.8</ele>
        <time>2021-11-04T08:09:12Z</time>
      </trkpt>
      <trkpt lat="44.1931" lon="5.33433">
        <ele>512.96</ele>
        <time>2021-11-04T08:08:55Z</time>
      </trkpt>
      <trkpt lat="44.19319" lon="5.33439">
        <ele>514.41</ele>
        <time>2021-11-04T08:08:41Z</time>
      </trkpt>
      <trkpt lat="44.19325" lon="5.3345">
        <ele>516.29</ele>
        <time>2021-11-04T08:08:23Z</time>
      </trkpt>
      <trkpt lat="44.19332" lon="5.33458">
        <ele>518.83</ele>
        <time>2021-11-04T08:08:09Z</time>
      </trkpt>
      <trkpt lat="44.19334" lon="5.33456">
        <ele>521.33</ele>
        <time>2021-11-04T08:07:47Z</time>
      </trkpt>
      <trkpt lat="44.1933" lon="5.33439">
        <ele>522.4</ele>
        <time>2021-11-04T08:07:38Z</time>
      </trkpt>
      <trkpt lat="44.19325" lon="5.33428">
        <ele>524.36</ele>
        <time>2021-11-04T08:07:29Z</time>
      </trkpt>
      <trkpt lat="44.19318" lon="5.33419">
        <ele>526.51</ele>
        <time>2021-11-04T08:07:19Z</time>
      </trkpt>
      <trkpt lat="44.19311" lon="5.33408">
        <ele>527.63</ele>
        <time>2021-11-04T08:07:09Z</time>
      </trkpt>
      <trkpt lat="44.19304" lon="5.334">
        <ele>529.77</ele>
        <time>2021-11-04T08:06:59Z</time>
      </trkpt>
      <trkpt lat="44.19295" lon="5.33399">
        <ele>531.64</ele>
        <time>2021-11-04T08:06:47Z</time>
      </trkpt>
      <trkpt lat="44.19296" lon="5.33395">
        <ele>532.11</ele>
        <time>2021-11-04T08:06:34Z</time>
      </trkpt>
      <trkpt lat="44.19306" lon="5.33388">
        <ele>535.08</ele>
        <time>2021-11-04T08:06:21Z</time>
      </trkpt>
      <trkpt lat="44.19317" lon="5.33388">
        <ele>537.64</ele>
        <time>2021-11-04T08:05:58Z</time>
      </trkpt>
      <trkpt lat="44.19328" lon="5.33396">
        <ele>540.76</ele>
        <time>2021-11-04T08:05:44Z</time>
      </trkpt>
      <trkpt lat="44.19338" lon="5.33402">
        <ele>542.98</ele>
        <time>2021-11-04T08:05:31Z</time>
      </trkpt>
      <trkpt lat="44.19349" lon="5.334">
        <ele>546.39</ele>
        <time>2021-11-04T08:05:13Z</time>
      </trkpt>
      <trkpt lat="44.19357" lon="5.33403">
        <ele>547.46</ele>
        <time>2021-11-04T08:04:58Z</time>
      </trkpt>
      <trkpt lat="44.19367" lon="5.33406">
        <ele>547.63</ele>
        <time>2021-11-04T08:04:47Z</time>
      </trkpt>
      <trkpt lat="44.19377" lon="5.33409">
        <ele>547.53</ele>
        <time>2021-11-04T08:04:37Z</time>
      </trkpt>
      <trkpt lat="44.19387" lon="5.33411">
        <ele>546.85</ele>
        <time>2021-11-04T08:04:28Z</time>
      </trkpt>
      <trkpt lat="44.19397" lon="5.33414">
        <ele>545.89</ele>
        <time>2021-11-04T08:04:18Z</time>
      </trkpt>
      <trkpt lat="44.19407" lon="5.33415">
        <ele>545.22</ele>
        <time>2021-11-04T08:04:09Z</time>
      </trkpt>
      <trkpt lat="44.19417" lon="5.33422">
        <ele>543.89</ele>
        <time>2021-11-04T08:03:58Z</time>
      </trkpt>
      <trkpt lat="44.19422" lon="5.33424">
        <ele>543.57</ele>
        <time>2021-11-04T08:03:20Z</time>
      </trkpt>
      <trkpt lat="44.19424" lon="5.33432">
        <ele>542.87</ele>
        <time>2021-11-04T08:02:40Z</time>
      </trkpt>
      <trkpt lat="44.19423" lon="5.33436">
        <ele>540.78</ele>
        <time>2021-11-04T08:01:37Z</time>
      </trkpt>
      <trkpt lat="44.19423" lon="5.33436">
        <ele>540.78</ele>
        <time>2021-11-04T08:01:37Z</time>
      </trkpt>
    </trkseg>
  </trk>
</gpx>